<?xml version="1.0" encoding="UTF-8" standalone="no" ?>
<gpx xmlns="http://www.topografix.com/GPX/1/1" xmlns:xsi="http://www.w3.org/2001/XMLSchema-instance" xsi:schemaLocation="http://www.topografix.com/GPX/1/1 http://www.topografix.com/GPX/1/1/gpx.xsd" version="1.1" creator="VisuGPX - https://www.visugpx.com">
  <metadata>
    <name>70k St Martin Des Noyers édité par cth85.com</name>
    <desc><![CDATA[Les Herbiers
le Gué Jourdain /Parc .Soubise
Stop a/g 1ère a/d La Goussaie
L'Oie / St Florence
Le Douet des Champs
A/gauche Rouadan
Stop a/d 1ère a/gauche
Ag Gissay //  Rabretière
Stop a/d 1ère a/g Le Guéret
Stop a/g  St Martin des Noyers
Direction St Cécile
Pont Charrault a/gauche
1èrea/d Revoireau //Le Breuil
Stop a/droite Ste Cécile
St Vincent Sterlanges
St Germain de Prinçay
A/g Rochetrejoux
Direction le Boupère
Stop de la Tuilerie a/gauche
St Paul Les Herbiers

]]></desc>
  </metadata>
  <trk>
    <name><![CDATA[70k St Martin Des Noyers on GPSies.com]]></name>
    <trkseg>
      <trkpt lat="46.86461" lon="-1.00516">
        <ele>121</ele>
        <time>2010-01-01T00:00:00Z</time>
      </trkpt>
      <trkpt lat="46.86431" lon="-1.00553">
        <ele>121</ele>
        <time>2010-01-01T00:00:15Z</time>
      </trkpt>
      <trkpt lat="46.86352" lon="-1.00595">
        <ele>120</ele>
        <time>2010-01-01T00:00:49Z</time>
      </trkpt>
      <trkpt lat="46.86236" lon="-1.00713">
        <ele>119</ele>
        <time>2010-01-01T00:01:46Z</time>
      </trkpt>
      <trkpt lat="46.86259" lon="-1.00786">
        <ele>120</ele>
        <time>2010-01-01T00:02:08Z</time>
      </trkpt>
      <trkpt lat="46.86236" lon="-1.00894">
        <ele>119</ele>
        <time>2010-01-01T00:02:39Z</time>
      </trkpt>
      <trkpt lat="46.86199" lon="-1.00988">
        <ele>119</ele>
        <time>2010-01-01T00:03:08Z</time>
      </trkpt>
      <trkpt lat="46.86159" lon="-1.01112">
        <ele>115</ele>
        <time>2010-01-01T00:03:46Z</time>
      </trkpt>
      <trkpt lat="46.86172" lon="-1.0114">
        <ele>116</ele>
        <time>2010-01-01T00:03:55Z</time>
      </trkpt>
      <trkpt lat="46.86132" lon="-1.01196">
        <ele>114</ele>
        <time>2010-01-01T00:04:18Z</time>
      </trkpt>
      <trkpt lat="46.86028" lon="-1.0131">
        <ele>113</ele>
        <time>2010-01-01T00:05:09Z</time>
      </trkpt>
      <trkpt lat="46.85887" lon="-1.01429">
        <ele>111</ele>
        <time>2010-01-01T00:06:15Z</time>
      </trkpt>
      <trkpt lat="46.85874" lon="-1.01446">
        <ele>111</ele>
        <time>2010-01-01T00:06:22Z</time>
      </trkpt>
      <trkpt lat="46.85877" lon="-1.01454">
        <ele>111</ele>
        <time>2010-01-01T00:06:24Z</time>
      </trkpt>
      <trkpt lat="46.85872" lon="-1.01463">
        <ele>111</ele>
        <time>2010-01-01T00:06:27Z</time>
      </trkpt>
      <trkpt lat="46.85864" lon="-1.01458">
        <ele>111</ele>
        <time>2010-01-01T00:06:31Z</time>
      </trkpt>
      <trkpt lat="46.85778" lon="-1.01534">
        <ele>108</ele>
        <time>2010-01-01T00:07:11Z</time>
      </trkpt>
      <trkpt lat="46.85761" lon="-1.0155">
        <ele>108</ele>
        <time>2010-01-01T00:07:19Z</time>
      </trkpt>
      <trkpt lat="46.85759" lon="-1.01561">
        <ele>109</ele>
        <time>2010-01-01T00:07:22Z</time>
      </trkpt>
      <trkpt lat="46.85753" lon="-1.01561">
        <ele>109</ele>
        <time>2010-01-01T00:07:25Z</time>
      </trkpt>
      <trkpt lat="46.85703" lon="-1.0161">
        <ele>105</ele>
        <time>2010-01-01T00:07:49Z</time>
      </trkpt>
      <trkpt lat="46.85685" lon="-1.01622">
        <ele>105</ele>
        <time>2010-01-01T00:07:57Z</time>
      </trkpt>
      <trkpt lat="46.85615" lon="-1.01651">
        <ele>105</ele>
        <time>2010-01-01T00:08:26Z</time>
      </trkpt>
      <trkpt lat="46.85297" lon="-1.01739">
        <ele>110</ele>
        <time>2010-01-01T00:10:35Z</time>
      </trkpt>
      <trkpt lat="46.85246" lon="-1.01733">
        <ele>112</ele>
        <time>2010-01-01T00:10:56Z</time>
      </trkpt>
      <trkpt lat="46.85192" lon="-1.01711">
        <ele>112</ele>
        <time>2010-01-01T00:11:18Z</time>
      </trkpt>
      <trkpt lat="46.85115" lon="-1.01666">
        <ele>115</ele>
        <time>2010-01-01T00:11:51Z</time>
      </trkpt>
      <trkpt lat="46.85028" lon="-1.01587">
        <ele>116</ele>
        <time>2010-01-01T00:12:32Z</time>
      </trkpt>
      <trkpt lat="46.85008" lon="-1.01588">
        <ele>116</ele>
        <time>2010-01-01T00:12:40Z</time>
      </trkpt>
      <trkpt lat="46.84941" lon="-1.01554">
        <ele>115</ele>
        <time>2010-01-01T00:13:09Z</time>
      </trkpt>
      <trkpt lat="46.84915" lon="-1.01548">
        <ele>114</ele>
        <time>2010-01-01T00:13:19Z</time>
      </trkpt>
      <trkpt lat="46.84793" lon="-1.01544">
        <ele>111</ele>
        <time>2010-01-01T00:14:08Z</time>
      </trkpt>
      <trkpt lat="46.84779" lon="-1.01528">
        <ele>111</ele>
        <time>2010-01-01T00:14:15Z</time>
      </trkpt>
      <trkpt lat="46.8465" lon="-1.01538">
        <ele>109</ele>
        <time>2010-01-01T00:15:07Z</time>
      </trkpt>
      <trkpt lat="46.84573" lon="-1.01525">
        <ele>110</ele>
        <time>2010-01-01T00:15:38Z</time>
      </trkpt>
      <trkpt lat="46.84562" lon="-1.0154">
        <ele>110</ele>
        <time>2010-01-01T00:15:44Z</time>
      </trkpt>
      <trkpt lat="46.84552" lon="-1.01541">
        <ele>110</ele>
        <time>2010-01-01T00:15:48Z</time>
      </trkpt>
      <trkpt lat="46.8454" lon="-1.01527">
        <ele>110</ele>
        <time>2010-01-01T00:15:54Z</time>
      </trkpt>
      <trkpt lat="46.84539" lon="-1.0151">
        <ele>110</ele>
        <time>2010-01-01T00:15:59Z</time>
      </trkpt>
      <trkpt lat="46.84529" lon="-1.01507">
        <ele>110</ele>
        <time>2010-01-01T00:16:03Z</time>
      </trkpt>
      <trkpt lat="46.84534" lon="-1.01572">
        <ele>110</ele>
        <time>2010-01-01T00:16:21Z</time>
      </trkpt>
      <trkpt lat="46.84543" lon="-1.01606">
        <ele>110</ele>
        <time>2010-01-01T00:16:31Z</time>
      </trkpt>
      <trkpt lat="46.8456" lon="-1.01649">
        <ele>109</ele>
        <time>2010-01-01T00:16:45Z</time>
      </trkpt>
      <trkpt lat="46.84596" lon="-1.01718">
        <ele>107</ele>
        <time>2010-01-01T00:17:08Z</time>
      </trkpt>
      <trkpt lat="46.84602" lon="-1.01752">
        <ele>106</ele>
        <time>2010-01-01T00:17:18Z</time>
      </trkpt>
      <trkpt lat="46.84631" lon="-1.01808">
        <ele>106</ele>
        <time>2010-01-01T00:17:37Z</time>
      </trkpt>
      <trkpt lat="46.8466" lon="-1.01872">
        <ele>108</ele>
        <time>2010-01-01T00:17:58Z</time>
      </trkpt>
      <trkpt lat="46.84681" lon="-1.01937">
        <ele>109</ele>
        <time>2010-01-01T00:18:18Z</time>
      </trkpt>
      <trkpt lat="46.84681" lon="-1.01971">
        <ele>110</ele>
        <time>2010-01-01T00:18:27Z</time>
      </trkpt>
      <trkpt lat="46.84698" lon="-1.02031">
        <ele>111</ele>
        <time>2010-01-01T00:18:45Z</time>
      </trkpt>
      <trkpt lat="46.84678" lon="-1.02083">
        <ele>111</ele>
        <time>2010-01-01T00:19:01Z</time>
      </trkpt>
      <trkpt lat="46.84685" lon="-1.0209">
        <ele>111</ele>
        <time>2010-01-01T00:19:05Z</time>
      </trkpt>
      <trkpt lat="46.84664" lon="-1.02141">
        <ele>113</ele>
        <time>2010-01-01T00:19:21Z</time>
      </trkpt>
      <trkpt lat="46.84641" lon="-1.02212">
        <ele>113</ele>
        <time>2010-01-01T00:19:43Z</time>
      </trkpt>
      <trkpt lat="46.84537" lon="-1.02588">
        <ele>113</ele>
        <time>2010-01-01T00:21:34Z</time>
      </trkpt>
      <trkpt lat="46.84483" lon="-1.02751">
        <ele>113</ele>
        <time>2010-01-01T00:22:23Z</time>
      </trkpt>
      <trkpt lat="46.8447" lon="-1.02832">
        <ele>112</ele>
        <time>2010-01-01T00:22:46Z</time>
      </trkpt>
      <trkpt lat="46.84468" lon="-1.02864">
        <ele>112</ele>
        <time>2010-01-01T00:22:55Z</time>
      </trkpt>
      <trkpt lat="46.84469" lon="-1.02977">
        <ele>110</ele>
        <time>2010-01-01T00:23:26Z</time>
      </trkpt>
      <trkpt lat="46.84483" lon="-1.03119">
        <ele>111</ele>
        <time>2010-01-01T00:24:05Z</time>
      </trkpt>
      <trkpt lat="46.84481" lon="-1.03157">
        <ele>111</ele>
        <time>2010-01-01T00:24:16Z</time>
      </trkpt>
      <trkpt lat="46.84456" lon="-1.0326">
        <ele>111</ele>
        <time>2010-01-01T00:24:45Z</time>
      </trkpt>
      <trkpt lat="46.84381" lon="-1.03494">
        <ele>108</ele>
        <time>2010-01-01T00:25:56Z</time>
      </trkpt>
      <trkpt lat="46.84356" lon="-1.03601">
        <ele>108</ele>
        <time>2010-01-01T00:26:27Z</time>
      </trkpt>
      <trkpt lat="46.84331" lon="-1.03744">
        <ele>108</ele>
        <time>2010-01-01T00:27:08Z</time>
      </trkpt>
      <trkpt lat="46.84281" lon="-1.04209">
        <ele>108</ele>
        <time>2010-01-01T00:29:16Z</time>
      </trkpt>
      <trkpt lat="46.84282" lon="-1.0429">
        <ele>108</ele>
        <time>2010-01-01T00:29:39Z</time>
      </trkpt>
      <trkpt lat="46.84314" lon="-1.04455">
        <ele>107</ele>
        <time>2010-01-01T00:30:26Z</time>
      </trkpt>
      <trkpt lat="46.84339" lon="-1.04554">
        <ele>107</ele>
        <time>2010-01-01T00:30:54Z</time>
      </trkpt>
      <trkpt lat="46.84366" lon="-1.04685">
        <ele>108</ele>
        <time>2010-01-01T00:31:32Z</time>
      </trkpt>
      <trkpt lat="46.84361" lon="-1.04735">
        <ele>107</ele>
        <time>2010-01-01T00:31:46Z</time>
      </trkpt>
      <trkpt lat="46.84343" lon="-1.04765">
        <ele>107</ele>
        <time>2010-01-01T00:31:57Z</time>
      </trkpt>
      <trkpt lat="46.84314" lon="-1.0479">
        <ele>105</ele>
        <time>2010-01-01T00:32:10Z</time>
      </trkpt>
      <trkpt lat="46.84288" lon="-1.04823">
        <ele>103</ele>
        <time>2010-01-01T00:32:24Z</time>
      </trkpt>
      <trkpt lat="46.84106" lon="-1.04937">
        <ele>100</ele>
        <time>2010-01-01T00:33:43Z</time>
      </trkpt>
      <trkpt lat="46.84013" lon="-1.05001">
        <ele>96</ele>
        <time>2010-01-01T00:34:24Z</time>
      </trkpt>
      <trkpt lat="46.8394" lon="-1.0503">
        <ele>92</ele>
        <time>2010-01-01T00:34:55Z</time>
      </trkpt>
      <trkpt lat="46.8385" lon="-1.0505">
        <ele>94</ele>
        <time>2010-01-01T00:35:31Z</time>
      </trkpt>
      <trkpt lat="46.83781" lon="-1.05074">
        <ele>96</ele>
        <time>2010-01-01T00:35:59Z</time>
      </trkpt>
      <trkpt lat="46.83746" lon="-1.05106">
        <ele>97</ele>
        <time>2010-01-01T00:36:16Z</time>
      </trkpt>
      <trkpt lat="46.83716" lon="-1.05119">
        <ele>97</ele>
        <time>2010-01-01T00:36:29Z</time>
      </trkpt>
      <trkpt lat="46.83567" lon="-1.05156">
        <ele>103</ele>
        <time>2010-01-01T00:37:29Z</time>
      </trkpt>
      <trkpt lat="46.83427" lon="-1.05189">
        <ele>108</ele>
        <time>2010-01-01T00:38:26Z</time>
      </trkpt>
      <trkpt lat="46.8332" lon="-1.05234">
        <ele>105</ele>
        <time>2010-01-01T00:39:10Z</time>
      </trkpt>
      <trkpt lat="46.83295" lon="-1.05108">
        <ele>104</ele>
        <time>2010-01-01T00:39:46Z</time>
      </trkpt>
      <trkpt lat="46.83204" lon="-1.05131">
        <ele>104</ele>
        <time>2010-01-01T00:40:23Z</time>
      </trkpt>
      <trkpt lat="46.83082" lon="-1.05167">
        <ele>102</ele>
        <time>2010-01-01T00:41:13Z</time>
      </trkpt>
      <trkpt lat="46.8289" lon="-1.05206">
        <ele>103</ele>
        <time>2010-01-01T00:42:31Z</time>
      </trkpt>
      <trkpt lat="46.82856" lon="-1.05218">
        <ele>106</ele>
        <time>2010-01-01T00:42:45Z</time>
      </trkpt>
      <trkpt lat="46.8192" lon="-1.0566">
        <ele>107</ele>
        <time>2010-01-01T00:49:18Z</time>
      </trkpt>
      <trkpt lat="46.81897" lon="-1.05667">
        <ele>105</ele>
        <time>2010-01-01T00:49:28Z</time>
      </trkpt>
      <trkpt lat="46.81809" lon="-1.05661">
        <ele>105</ele>
        <time>2010-01-01T00:50:03Z</time>
      </trkpt>
      <trkpt lat="46.81619" lon="-1.05633">
        <ele>105</ele>
        <time>2010-01-01T00:51:20Z</time>
      </trkpt>
      <trkpt lat="46.81572" lon="-1.05621">
        <ele>105</ele>
        <time>2010-01-01T00:51:39Z</time>
      </trkpt>
      <trkpt lat="46.81246" lon="-1.05494">
        <ele>105</ele>
        <time>2010-01-01T00:53:54Z</time>
      </trkpt>
      <trkpt lat="46.81127" lon="-1.05461">
        <ele>104</ele>
        <time>2010-01-01T00:54:42Z</time>
      </trkpt>
      <trkpt lat="46.81062" lon="-1.05449">
        <ele>104</ele>
        <time>2010-01-01T00:55:08Z</time>
      </trkpt>
      <trkpt lat="46.80986" lon="-1.05446">
        <ele>100</ele>
        <time>2010-01-01T00:55:39Z</time>
      </trkpt>
      <trkpt lat="46.80934" lon="-1.05421">
        <ele>99</ele>
        <time>2010-01-01T00:56:01Z</time>
      </trkpt>
      <trkpt lat="46.80894" lon="-1.05421">
        <ele>98</ele>
        <time>2010-01-01T00:56:17Z</time>
      </trkpt>
      <trkpt lat="46.80874" lon="-1.05428">
        <ele>97</ele>
        <time>2010-01-01T00:56:25Z</time>
      </trkpt>
      <trkpt lat="46.808" lon="-1.05487">
        <ele>95</ele>
        <time>2010-01-01T00:56:59Z</time>
      </trkpt>
      <trkpt lat="46.80704" lon="-1.05602">
        <ele>91</ele>
        <time>2010-01-01T00:57:48Z</time>
      </trkpt>
      <trkpt lat="46.80585" lon="-1.05713">
        <ele>94</ele>
        <time>2010-01-01T00:58:45Z</time>
      </trkpt>
      <trkpt lat="46.80524" lon="-1.05802">
        <ele>94</ele>
        <time>2010-01-01T00:59:19Z</time>
      </trkpt>
      <trkpt lat="46.80488" lon="-1.05834">
        <ele>93</ele>
        <time>2010-01-01T00:59:36Z</time>
      </trkpt>
      <trkpt lat="46.80446" lon="-1.05858">
        <ele>92</ele>
        <time>2010-01-01T00:59:54Z</time>
      </trkpt>
      <trkpt lat="46.80348" lon="-1.05887">
        <ele>91</ele>
        <time>2010-01-01T01:00:34Z</time>
      </trkpt>
      <trkpt lat="46.80267" lon="-1.05939">
        <ele>91</ele>
        <time>2010-01-01T01:01:10Z</time>
      </trkpt>
      <trkpt lat="46.80236" lon="-1.05935">
        <ele>91</ele>
        <time>2010-01-01T01:01:22Z</time>
      </trkpt>
      <trkpt lat="46.80161" lon="-1.05909">
        <ele>93</ele>
        <time>2010-01-01T01:01:53Z</time>
      </trkpt>
      <trkpt lat="46.80104" lon="-1.05892">
        <ele>94</ele>
        <time>2010-01-01T01:02:16Z</time>
      </trkpt>
      <trkpt lat="46.80073" lon="-1.05898">
        <ele>94</ele>
        <time>2010-01-01T01:02:29Z</time>
      </trkpt>
      <trkpt lat="46.80041" lon="-1.05911">
        <ele>94</ele>
        <time>2010-01-01T01:02:42Z</time>
      </trkpt>
      <trkpt lat="46.80011" lon="-1.0595">
        <ele>94</ele>
        <time>2010-01-01T01:02:58Z</time>
      </trkpt>
      <trkpt lat="46.79994" lon="-1.05988">
        <ele>93</ele>
        <time>2010-01-01T01:03:11Z</time>
      </trkpt>
      <trkpt lat="46.79894" lon="-1.06125">
        <ele>91</ele>
        <time>2010-01-01T01:04:06Z</time>
      </trkpt>
      <trkpt lat="46.79874" lon="-1.06146">
        <ele>91</ele>
        <time>2010-01-01T01:04:16Z</time>
      </trkpt>
      <trkpt lat="46.79849" lon="-1.06162">
        <ele>92</ele>
        <time>2010-01-01T01:04:26Z</time>
      </trkpt>
      <trkpt lat="46.79736" lon="-1.06182">
        <ele>94</ele>
        <time>2010-01-01T01:05:12Z</time>
      </trkpt>
      <trkpt lat="46.79659" lon="-1.06213">
        <ele>92</ele>
        <time>2010-01-01T01:05:44Z</time>
      </trkpt>
      <trkpt lat="46.79649" lon="-1.06217">
        <ele>92</ele>
        <time>2010-01-01T01:05:48Z</time>
      </trkpt>
      <trkpt lat="46.79659" lon="-1.06213">
        <ele>92</ele>
        <time>2010-01-01T01:05:52Z</time>
      </trkpt>
      <trkpt lat="46.7973" lon="-1.06427">
        <ele>88</ele>
        <time>2010-01-01T01:06:57Z</time>
      </trkpt>
      <trkpt lat="46.79736" lon="-1.06468">
        <ele>87</ele>
        <time>2010-01-01T01:07:09Z</time>
      </trkpt>
      <trkpt lat="46.79739" lon="-1.06574">
        <ele>85</ele>
        <time>2010-01-01T01:07:38Z</time>
      </trkpt>
      <trkpt lat="46.7975" lon="-1.06622">
        <ele>85</ele>
        <time>2010-01-01T01:07:52Z</time>
      </trkpt>
      <trkpt lat="46.7976" lon="-1.06649">
        <ele>86</ele>
        <time>2010-01-01T01:08:00Z</time>
      </trkpt>
      <trkpt lat="46.79784" lon="-1.06696">
        <ele>89</ele>
        <time>2010-01-01T01:08:16Z</time>
      </trkpt>
      <trkpt lat="46.79799" lon="-1.06717">
        <ele>89</ele>
        <time>2010-01-01T01:08:25Z</time>
      </trkpt>
      <trkpt lat="46.79832" lon="-1.0674">
        <ele>91</ele>
        <time>2010-01-01T01:08:39Z</time>
      </trkpt>
      <trkpt lat="46.79855" lon="-1.06766">
        <ele>94</ele>
        <time>2010-01-01T01:08:51Z</time>
      </trkpt>
      <trkpt lat="46.79866" lon="-1.06785">
        <ele>94</ele>
        <time>2010-01-01T01:08:58Z</time>
      </trkpt>
      <trkpt lat="46.79914" lon="-1.06897">
        <ele>95</ele>
        <time>2010-01-01T01:09:34Z</time>
      </trkpt>
      <trkpt lat="46.79928" lon="-1.06936">
        <ele>96</ele>
        <time>2010-01-01T01:09:46Z</time>
      </trkpt>
      <trkpt lat="46.79944" lon="-1.06998">
        <ele>97</ele>
        <time>2010-01-01T01:10:04Z</time>
      </trkpt>
      <trkpt lat="46.79958" lon="-1.07032">
        <ele>96</ele>
        <time>2010-01-01T01:10:15Z</time>
      </trkpt>
      <trkpt lat="46.7999" lon="-1.07074">
        <ele>96</ele>
        <time>2010-01-01T01:10:32Z</time>
      </trkpt>
      <trkpt lat="46.80014" lon="-1.07096">
        <ele>96</ele>
        <time>2010-01-01T01:10:44Z</time>
      </trkpt>
      <trkpt lat="46.79991" lon="-1.07148">
        <ele>96</ele>
        <time>2010-01-01T01:11:01Z</time>
      </trkpt>
      <trkpt lat="46.79977" lon="-1.07202">
        <ele>96</ele>
        <time>2010-01-01T01:11:16Z</time>
      </trkpt>
      <trkpt lat="46.79883" lon="-1.07427">
        <ele>97</ele>
        <time>2010-01-01T01:12:29Z</time>
      </trkpt>
      <trkpt lat="46.79809" lon="-1.07611">
        <ele>98</ele>
        <time>2010-01-01T01:13:27Z</time>
      </trkpt>
      <trkpt lat="46.79861" lon="-1.07682">
        <ele>98</ele>
        <time>2010-01-01T01:13:56Z</time>
      </trkpt>
      <trkpt lat="46.79904" lon="-1.07752">
        <ele>98</ele>
        <time>2010-01-01T01:14:21Z</time>
      </trkpt>
      <trkpt lat="46.79992" lon="-1.07836">
        <ele>97</ele>
        <time>2010-01-01T01:15:04Z</time>
      </trkpt>
      <trkpt lat="46.80092" lon="-1.07901">
        <ele>98</ele>
        <time>2010-01-01T01:15:47Z</time>
      </trkpt>
      <trkpt lat="46.80186" lon="-1.0796">
        <ele>100</ele>
        <time>2010-01-01T01:16:28Z</time>
      </trkpt>
      <trkpt lat="46.80194" lon="-1.07983">
        <ele>100</ele>
        <time>2010-01-01T01:16:35Z</time>
      </trkpt>
      <trkpt lat="46.80205" lon="-1.08023">
        <ele>101</ele>
        <time>2010-01-01T01:16:47Z</time>
      </trkpt>
      <trkpt lat="46.80259" lon="-1.08305">
        <ele>100</ele>
        <time>2010-01-01T01:18:07Z</time>
      </trkpt>
      <trkpt lat="46.80274" lon="-1.08354">
        <ele>99</ele>
        <time>2010-01-01T01:18:22Z</time>
      </trkpt>
      <trkpt lat="46.80373" lon="-1.08776">
        <ele>98</ele>
        <time>2010-01-01T01:20:24Z</time>
      </trkpt>
      <trkpt lat="46.80419" lon="-1.08849">
        <ele>97</ele>
        <time>2010-01-01T01:20:52Z</time>
      </trkpt>
      <trkpt lat="46.80488" lon="-1.08885">
        <ele>96</ele>
        <time>2010-01-01T01:21:21Z</time>
      </trkpt>
      <trkpt lat="46.80565" lon="-1.08914">
        <ele>91</ele>
        <time>2010-01-01T01:21:53Z</time>
      </trkpt>
      <trkpt lat="46.80622" lon="-1.08964">
        <ele>91</ele>
        <time>2010-01-01T01:22:19Z</time>
      </trkpt>
      <trkpt lat="46.80682" lon="-1.0903">
        <ele>90</ele>
        <time>2010-01-01T01:22:49Z</time>
      </trkpt>
      <trkpt lat="46.80693" lon="-1.09037">
        <ele>90</ele>
        <time>2010-01-01T01:22:54Z</time>
      </trkpt>
      <trkpt lat="46.80706" lon="-1.09109">
        <ele>91</ele>
        <time>2010-01-01T01:23:15Z</time>
      </trkpt>
      <trkpt lat="46.80728" lon="-1.09171">
        <ele>92</ele>
        <time>2010-01-01T01:23:34Z</time>
      </trkpt>
      <trkpt lat="46.80776" lon="-1.09254">
        <ele>94</ele>
        <time>2010-01-01T01:24:03Z</time>
      </trkpt>
      <trkpt lat="46.80844" lon="-1.09352">
        <ele>94</ele>
        <time>2010-01-01T01:24:42Z</time>
      </trkpt>
      <trkpt lat="46.80854" lon="-1.09379">
        <ele>95</ele>
        <time>2010-01-01T01:24:50Z</time>
      </trkpt>
      <trkpt lat="46.80855" lon="-1.09408">
        <ele>95</ele>
        <time>2010-01-01T01:24:58Z</time>
      </trkpt>
      <trkpt lat="46.80852" lon="-1.09426">
        <ele>94</ele>
        <time>2010-01-01T01:25:03Z</time>
      </trkpt>
      <trkpt lat="46.80837" lon="-1.09475">
        <ele>94</ele>
        <time>2010-01-01T01:25:18Z</time>
      </trkpt>
      <trkpt lat="46.80838" lon="-1.09504">
        <ele>94</ele>
        <time>2010-01-01T01:25:26Z</time>
      </trkpt>
      <trkpt lat="46.80851" lon="-1.09552">
        <ele>94</ele>
        <time>2010-01-01T01:25:40Z</time>
      </trkpt>
      <trkpt lat="46.80861" lon="-1.09595">
        <ele>95</ele>
        <time>2010-01-01T01:25:52Z</time>
      </trkpt>
      <trkpt lat="46.80869" lon="-1.09677">
        <ele>95</ele>
        <time>2010-01-01T01:26:15Z</time>
      </trkpt>
      <trkpt lat="46.80862" lon="-1.09705">
        <ele>96</ele>
        <time>2010-01-01T01:26:23Z</time>
      </trkpt>
      <trkpt lat="46.80847" lon="-1.09727">
        <ele>96</ele>
        <time>2010-01-01T01:26:32Z</time>
      </trkpt>
      <trkpt lat="46.80837" lon="-1.09769">
        <ele>95</ele>
        <time>2010-01-01T01:26:44Z</time>
      </trkpt>
      <trkpt lat="46.80838" lon="-1.09796">
        <ele>94</ele>
        <time>2010-01-01T01:26:51Z</time>
      </trkpt>
      <trkpt lat="46.80865" lon="-1.09975">
        <ele>93</ele>
        <time>2010-01-01T01:27:42Z</time>
      </trkpt>
      <trkpt lat="46.80864" lon="-1.09993">
        <ele>93</ele>
        <time>2010-01-01T01:27:47Z</time>
      </trkpt>
      <trkpt lat="46.80858" lon="-1.10022">
        <ele>93</ele>
        <time>2010-01-01T01:27:55Z</time>
      </trkpt>
      <trkpt lat="46.80762" lon="-1.10258">
        <ele>97</ele>
        <time>2010-01-01T01:29:10Z</time>
      </trkpt>
      <trkpt lat="46.80746" lon="-1.10294">
        <ele>98</ele>
        <time>2010-01-01T01:29:22Z</time>
      </trkpt>
      <trkpt lat="46.80743" lon="-1.10323">
        <ele>98</ele>
        <time>2010-01-01T01:29:30Z</time>
      </trkpt>
      <trkpt lat="46.80768" lon="-1.10409">
        <ele>98</ele>
        <time>2010-01-01T01:29:55Z</time>
      </trkpt>
      <trkpt lat="46.80838" lon="-1.106">
        <ele>99</ele>
        <time>2010-01-01T01:30:55Z</time>
      </trkpt>
      <trkpt lat="46.80862" lon="-1.1065">
        <ele>99</ele>
        <time>2010-01-01T01:31:12Z</time>
      </trkpt>
      <trkpt lat="46.80902" lon="-1.10708">
        <ele>99</ele>
        <time>2010-01-01T01:31:34Z</time>
      </trkpt>
      <trkpt lat="46.80946" lon="-1.10762">
        <ele>100</ele>
        <time>2010-01-01T01:31:57Z</time>
      </trkpt>
      <trkpt lat="46.8097" lon="-1.1082">
        <ele>100</ele>
        <time>2010-01-01T01:32:16Z</time>
      </trkpt>
      <trkpt lat="46.81034" lon="-1.10949">
        <ele>102</ele>
        <time>2010-01-01T01:32:59Z</time>
      </trkpt>
      <trkpt lat="46.8111" lon="-1.11115">
        <ele>101</ele>
        <time>2010-01-01T01:33:54Z</time>
      </trkpt>
      <trkpt lat="46.81139" lon="-1.11164">
        <ele>102</ele>
        <time>2010-01-01T01:34:12Z</time>
      </trkpt>
      <trkpt lat="46.81157" lon="-1.11182">
        <ele>103</ele>
        <time>2010-01-01T01:34:21Z</time>
      </trkpt>
      <trkpt lat="46.81129" lon="-1.11188">
        <ele>103</ele>
        <time>2010-01-01T01:34:32Z</time>
      </trkpt>
      <trkpt lat="46.81056" lon="-1.11219">
        <ele>101</ele>
        <time>2010-01-01T01:35:02Z</time>
      </trkpt>
      <trkpt lat="46.81031" lon="-1.11222">
        <ele>101</ele>
        <time>2010-01-01T01:35:12Z</time>
      </trkpt>
      <trkpt lat="46.80879" lon="-1.11159">
        <ele>99</ele>
        <time>2010-01-01T01:36:16Z</time>
      </trkpt>
      <trkpt lat="46.80826" lon="-1.11144">
        <ele>99</ele>
        <time>2010-01-01T01:36:37Z</time>
      </trkpt>
      <trkpt lat="46.80788" lon="-1.1112">
        <ele>99</ele>
        <time>2010-01-01T01:36:54Z</time>
      </trkpt>
      <trkpt lat="46.80713" lon="-1.11255">
        <ele>94</ele>
        <time>2010-01-01T01:37:41Z</time>
      </trkpt>
      <trkpt lat="46.80694" lon="-1.11277">
        <ele>93</ele>
        <time>2010-01-01T01:37:51Z</time>
      </trkpt>
      <trkpt lat="46.80639" lon="-1.11323">
        <ele>92</ele>
        <time>2010-01-01T01:38:16Z</time>
      </trkpt>
      <trkpt lat="46.80563" lon="-1.11339">
        <ele>92</ele>
        <time>2010-01-01T01:38:47Z</time>
      </trkpt>
      <trkpt lat="46.80525" lon="-1.11363">
        <ele>92</ele>
        <time>2010-01-01T01:39:04Z</time>
      </trkpt>
      <trkpt lat="46.80484" lon="-1.11372">
        <ele>93</ele>
        <time>2010-01-01T01:39:20Z</time>
      </trkpt>
      <trkpt lat="46.80465" lon="-1.11369">
        <ele>93</ele>
        <time>2010-01-01T01:39:28Z</time>
      </trkpt>
      <trkpt lat="46.8044" lon="-1.11341">
        <ele>93</ele>
        <time>2010-01-01T01:39:41Z</time>
      </trkpt>
      <trkpt lat="46.80358" lon="-1.11474">
        <ele>96</ele>
        <time>2010-01-01T01:40:30Z</time>
      </trkpt>
      <trkpt lat="46.80354" lon="-1.11537">
        <ele>97</ele>
        <time>2010-01-01T01:40:47Z</time>
      </trkpt>
      <trkpt lat="46.80348" lon="-1.11572">
        <ele>96</ele>
        <time>2010-01-01T01:40:57Z</time>
      </trkpt>
      <trkpt lat="46.80341" lon="-1.11586">
        <ele>96</ele>
        <time>2010-01-01T01:41:02Z</time>
      </trkpt>
      <trkpt lat="46.8031" lon="-1.11616">
        <ele>94</ele>
        <time>2010-01-01T01:41:17Z</time>
      </trkpt>
      <trkpt lat="46.80299" lon="-1.11633">
        <ele>94</ele>
        <time>2010-01-01T01:41:23Z</time>
      </trkpt>
      <trkpt lat="46.8029" lon="-1.11696">
        <ele>94</ele>
        <time>2010-01-01T01:41:41Z</time>
      </trkpt>
      <trkpt lat="46.80294" lon="-1.1168">
        <ele>93</ele>
        <time>2010-01-01T01:41:45Z</time>
      </trkpt>
      <trkpt lat="46.8036" lon="-1.11922">
        <ele>95</ele>
        <time>2010-01-01T01:42:57Z</time>
      </trkpt>
      <trkpt lat="46.80376" lon="-1.1195">
        <ele>95</ele>
        <time>2010-01-01T01:43:07Z</time>
      </trkpt>
      <trkpt lat="46.80396" lon="-1.11963">
        <ele>96</ele>
        <time>2010-01-01T01:43:15Z</time>
      </trkpt>
      <trkpt lat="46.80398" lon="-1.11984">
        <ele>96</ele>
        <time>2010-01-01T01:43:21Z</time>
      </trkpt>
      <trkpt lat="46.80463" lon="-1.12509">
        <ele>99</ele>
        <time>2010-01-01T01:45:47Z</time>
      </trkpt>
      <trkpt lat="46.80461" lon="-1.12543">
        <ele>99</ele>
        <time>2010-01-01T01:45:57Z</time>
      </trkpt>
      <trkpt lat="46.80318" lon="-1.12611">
        <ele>97</ele>
        <time>2010-01-01T01:46:57Z</time>
      </trkpt>
      <trkpt lat="46.80184" lon="-1.12742">
        <ele>98</ele>
        <time>2010-01-01T01:48:01Z</time>
      </trkpt>
      <trkpt lat="46.80171" lon="-1.12756">
        <ele>98</ele>
        <time>2010-01-01T01:48:08Z</time>
      </trkpt>
      <trkpt lat="46.80149" lon="-1.12793">
        <ele>97</ele>
        <time>2010-01-01T01:48:21Z</time>
      </trkpt>
      <trkpt lat="46.80046" lon="-1.13022">
        <ele>98</ele>
        <time>2010-01-01T01:49:36Z</time>
      </trkpt>
      <trkpt lat="46.80033" lon="-1.13064">
        <ele>98</ele>
        <time>2010-01-01T01:49:49Z</time>
      </trkpt>
      <trkpt lat="46.80002" lon="-1.1304">
        <ele>99</ele>
        <time>2010-01-01T01:50:03Z</time>
      </trkpt>
      <trkpt lat="46.8002" lon="-1.13121">
        <ele>99</ele>
        <time>2010-01-01T01:50:26Z</time>
      </trkpt>
      <trkpt lat="46.80025" lon="-1.13131">
        <ele>99</ele>
        <time>2010-01-01T01:50:30Z</time>
      </trkpt>
      <trkpt lat="46.80014" lon="-1.13161">
        <ele>100</ele>
        <time>2010-01-01T01:50:39Z</time>
      </trkpt>
      <trkpt lat="46.80002" lon="-1.13169">
        <ele>101</ele>
        <time>2010-01-01T01:50:44Z</time>
      </trkpt>
      <trkpt lat="46.79995" lon="-1.13171">
        <ele>101</ele>
        <time>2010-01-01T01:50:47Z</time>
      </trkpt>
      <trkpt lat="46.79979" lon="-1.13158">
        <ele>100</ele>
        <time>2010-01-01T01:50:55Z</time>
      </trkpt>
      <trkpt lat="46.79814" lon="-1.13233">
        <ele>106</ele>
        <time>2010-01-01T01:52:04Z</time>
      </trkpt>
      <trkpt lat="46.79802" lon="-1.13228">
        <ele>107</ele>
        <time>2010-01-01T01:52:09Z</time>
      </trkpt>
      <trkpt lat="46.79786" lon="-1.13203">
        <ele>108</ele>
        <time>2010-01-01T01:52:18Z</time>
      </trkpt>
      <trkpt lat="46.7978" lon="-1.13212">
        <ele>108</ele>
        <time>2010-01-01T01:52:22Z</time>
      </trkpt>
      <trkpt lat="46.79752" lon="-1.13229">
        <ele>107</ele>
        <time>2010-01-01T01:52:34Z</time>
      </trkpt>
      <trkpt lat="46.79704" lon="-1.13251">
        <ele>106</ele>
        <time>2010-01-01T01:52:54Z</time>
      </trkpt>
      <trkpt lat="46.79561" lon="-1.13376">
        <ele>98</ele>
        <time>2010-01-01T01:54:01Z</time>
      </trkpt>
      <trkpt lat="46.79454" lon="-1.13463">
        <ele>94</ele>
        <time>2010-01-01T01:54:50Z</time>
      </trkpt>
      <trkpt lat="46.79305" lon="-1.13521">
        <ele>87</ele>
        <time>2010-01-01T01:55:51Z</time>
      </trkpt>
      <trkpt lat="46.7929" lon="-1.13537">
        <ele>88</ele>
        <time>2010-01-01T01:55:59Z</time>
      </trkpt>
      <trkpt lat="46.79247" lon="-1.13604">
        <ele>89</ele>
        <time>2010-01-01T01:56:24Z</time>
      </trkpt>
      <trkpt lat="46.79192" lon="-1.13666">
        <ele>91</ele>
        <time>2010-01-01T01:56:52Z</time>
      </trkpt>
      <trkpt lat="46.79189" lon="-1.13657">
        <ele>91</ele>
        <time>2010-01-01T01:56:55Z</time>
      </trkpt>
      <trkpt lat="46.79192" lon="-1.13666">
        <ele>91</ele>
        <time>2010-01-01T01:56:57Z</time>
      </trkpt>
      <trkpt lat="46.79176" lon="-1.13689">
        <ele>93</ele>
        <time>2010-01-01T01:57:06Z</time>
      </trkpt>
      <trkpt lat="46.79138" lon="-1.1376">
        <ele>97</ele>
        <time>2010-01-01T01:57:31Z</time>
      </trkpt>
      <trkpt lat="46.79129" lon="-1.13792">
        <ele>98</ele>
        <time>2010-01-01T01:57:40Z</time>
      </trkpt>
      <trkpt lat="46.79119" lon="-1.13865">
        <ele>99</ele>
        <time>2010-01-01T01:58:01Z</time>
      </trkpt>
      <trkpt lat="46.79109" lon="-1.13907">
        <ele>100</ele>
        <time>2010-01-01T01:58:13Z</time>
      </trkpt>
      <trkpt lat="46.79095" lon="-1.13943">
        <ele>100</ele>
        <time>2010-01-01T01:58:24Z</time>
      </trkpt>
      <trkpt lat="46.79075" lon="-1.1397">
        <ele>101</ele>
        <time>2010-01-01T01:58:35Z</time>
      </trkpt>
      <trkpt lat="46.79051" lon="-1.1399">
        <ele>100</ele>
        <time>2010-01-01T01:58:46Z</time>
      </trkpt>
      <trkpt lat="46.78998" lon="-1.14019">
        <ele>100</ele>
        <time>2010-01-01T01:59:09Z</time>
      </trkpt>
      <trkpt lat="46.78984" lon="-1.14034">
        <ele>100</ele>
        <time>2010-01-01T01:59:16Z</time>
      </trkpt>
      <trkpt lat="46.79002" lon="-1.14111">
        <ele>101</ele>
        <time>2010-01-01T01:59:38Z</time>
      </trkpt>
      <trkpt lat="46.79014" lon="-1.14137">
        <ele>101</ele>
        <time>2010-01-01T01:59:47Z</time>
      </trkpt>
      <trkpt lat="46.79153" lon="-1.14295">
        <ele>101</ele>
        <time>2010-01-01T02:00:57Z</time>
      </trkpt>
      <trkpt lat="46.7918" lon="-1.1434">
        <ele>102</ele>
        <time>2010-01-01T02:01:14Z</time>
      </trkpt>
      <trkpt lat="46.79341" lon="-1.14763">
        <ele>102</ele>
        <time>2010-01-01T02:03:26Z</time>
      </trkpt>
      <trkpt lat="46.79349" lon="-1.14795">
        <ele>102</ele>
        <time>2010-01-01T02:03:36Z</time>
      </trkpt>
      <trkpt lat="46.79364" lon="-1.1496">
        <ele>103</ele>
        <time>2010-01-01T02:04:21Z</time>
      </trkpt>
      <trkpt lat="46.79394" lon="-1.15033">
        <ele>103</ele>
        <time>2010-01-01T02:04:45Z</time>
      </trkpt>
      <trkpt lat="46.79297" lon="-1.15161">
        <ele>102</ele>
        <time>2010-01-01T02:05:37Z</time>
      </trkpt>
      <trkpt lat="46.7926" lon="-1.15229">
        <ele>101</ele>
        <time>2010-01-01T02:06:01Z</time>
      </trkpt>
      <trkpt lat="46.79169" lon="-1.15648">
        <ele>96</ele>
        <time>2010-01-01T02:08:01Z</time>
      </trkpt>
      <trkpt lat="46.79165" lon="-1.15726">
        <ele>94</ele>
        <time>2010-01-01T02:08:23Z</time>
      </trkpt>
      <trkpt lat="46.79161" lon="-1.15748">
        <ele>94</ele>
        <time>2010-01-01T02:08:29Z</time>
      </trkpt>
      <trkpt lat="46.79107" lon="-1.15837">
        <ele>92</ele>
        <time>2010-01-01T02:09:02Z</time>
      </trkpt>
      <trkpt lat="46.79077" lon="-1.15908">
        <ele>92</ele>
        <time>2010-01-01T02:09:24Z</time>
      </trkpt>
      <trkpt lat="46.78997" lon="-1.16041">
        <ele>91</ele>
        <time>2010-01-01T02:10:13Z</time>
      </trkpt>
      <trkpt lat="46.78989" lon="-1.16048">
        <ele>91</ele>
        <time>2010-01-01T02:10:17Z</time>
      </trkpt>
      <trkpt lat="46.78963" lon="-1.1606">
        <ele>90</ele>
        <time>2010-01-01T02:10:28Z</time>
      </trkpt>
      <trkpt lat="46.78891" lon="-1.1607">
        <ele>91</ele>
        <time>2010-01-01T02:10:57Z</time>
      </trkpt>
      <trkpt lat="46.78871" lon="-1.16078">
        <ele>90</ele>
        <time>2010-01-01T02:11:05Z</time>
      </trkpt>
      <trkpt lat="46.78779" lon="-1.16127">
        <ele>86</ele>
        <time>2010-01-01T02:11:44Z</time>
      </trkpt>
      <trkpt lat="46.78738" lon="-1.16155">
        <ele>82</ele>
        <time>2010-01-01T02:12:02Z</time>
      </trkpt>
      <trkpt lat="46.78714" lon="-1.16203">
        <ele>80</ele>
        <time>2010-01-01T02:12:18Z</time>
      </trkpt>
      <trkpt lat="46.78664" lon="-1.16396">
        <ele>84</ele>
        <time>2010-01-01T02:13:15Z</time>
      </trkpt>
      <trkpt lat="46.78624" lon="-1.1651">
        <ele>87</ele>
        <time>2010-01-01T02:13:50Z</time>
      </trkpt>
      <trkpt lat="46.78575" lon="-1.16616">
        <ele>87</ele>
        <time>2010-01-01T02:14:25Z</time>
      </trkpt>
      <trkpt lat="46.78561" lon="-1.16657">
        <ele>85</ele>
        <time>2010-01-01T02:14:38Z</time>
      </trkpt>
      <trkpt lat="46.7855" lon="-1.1674">
        <ele>85</ele>
        <time>2010-01-01T02:15:01Z</time>
      </trkpt>
      <trkpt lat="46.7855" lon="-1.16781">
        <ele>85</ele>
        <time>2010-01-01T02:15:12Z</time>
      </trkpt>
      <trkpt lat="46.78552" lon="-1.16815">
        <ele>85</ele>
        <time>2010-01-01T02:15:21Z</time>
      </trkpt>
      <trkpt lat="46.78566" lon="-1.16894">
        <ele>86</ele>
        <time>2010-01-01T02:15:44Z</time>
      </trkpt>
      <trkpt lat="46.78571" lon="-1.16921">
        <ele>86</ele>
        <time>2010-01-01T02:15:52Z</time>
      </trkpt>
      <trkpt lat="46.7853" lon="-1.16952">
        <ele>85</ele>
        <time>2010-01-01T02:16:10Z</time>
      </trkpt>
      <trkpt lat="46.78499" lon="-1.16967">
        <ele>86</ele>
        <time>2010-01-01T02:16:23Z</time>
      </trkpt>
      <trkpt lat="46.78379" lon="-1.16992">
        <ele>88</ele>
        <time>2010-01-01T02:17:12Z</time>
      </trkpt>
      <trkpt lat="46.78246" lon="-1.17005">
        <ele>90</ele>
        <time>2010-01-01T02:18:05Z</time>
      </trkpt>
      <trkpt lat="46.78228" lon="-1.17012">
        <ele>90</ele>
        <time>2010-01-01T02:18:12Z</time>
      </trkpt>
      <trkpt lat="46.78178" lon="-1.17048">
        <ele>91</ele>
        <time>2010-01-01T02:18:35Z</time>
      </trkpt>
      <trkpt lat="46.78167" lon="-1.17051">
        <ele>91</ele>
        <time>2010-01-01T02:18:39Z</time>
      </trkpt>
      <trkpt lat="46.78141" lon="-1.17051">
        <ele>92</ele>
        <time>2010-01-01T02:18:50Z</time>
      </trkpt>
      <trkpt lat="46.7801" lon="-1.16972">
        <ele>92</ele>
        <time>2010-01-01T02:19:46Z</time>
      </trkpt>
      <trkpt lat="46.77985" lon="-1.16964">
        <ele>92</ele>
        <time>2010-01-01T02:19:57Z</time>
      </trkpt>
      <trkpt lat="46.77966" lon="-1.16966">
        <ele>91</ele>
        <time>2010-01-01T02:20:04Z</time>
      </trkpt>
      <trkpt lat="46.77875" lon="-1.17021">
        <ele>90</ele>
        <time>2010-01-01T02:20:44Z</time>
      </trkpt>
      <trkpt lat="46.77845" lon="-1.17023">
        <ele>90</ele>
        <time>2010-01-01T02:20:56Z</time>
      </trkpt>
      <trkpt lat="46.77719" lon="-1.17011">
        <ele>93</ele>
        <time>2010-01-01T02:21:46Z</time>
      </trkpt>
      <trkpt lat="46.77651" lon="-1.17036">
        <ele>94</ele>
        <time>2010-01-01T02:22:14Z</time>
      </trkpt>
      <trkpt lat="46.77539" lon="-1.17051">
        <ele>99</ele>
        <time>2010-01-01T02:22:59Z</time>
      </trkpt>
      <trkpt lat="46.77442" lon="-1.17102">
        <ele>102</ele>
        <time>2010-01-01T02:23:41Z</time>
      </trkpt>
      <trkpt lat="46.77398" lon="-1.17117">
        <ele>101</ele>
        <time>2010-01-01T02:23:59Z</time>
      </trkpt>
      <trkpt lat="46.77356" lon="-1.17112">
        <ele>101</ele>
        <time>2010-01-01T02:24:16Z</time>
      </trkpt>
      <trkpt lat="46.77345" lon="-1.17122">
        <ele>101</ele>
        <time>2010-01-01T02:24:21Z</time>
      </trkpt>
      <trkpt lat="46.77356" lon="-1.17112">
        <ele>101</ele>
        <time>2010-01-01T02:24:26Z</time>
      </trkpt>
      <trkpt lat="46.77335" lon="-1.17261">
        <ele>103</ele>
        <time>2010-01-01T02:25:08Z</time>
      </trkpt>
      <trkpt lat="46.77333" lon="-1.17378">
        <ele>104</ele>
        <time>2010-01-01T02:25:40Z</time>
      </trkpt>
      <trkpt lat="46.7736" lon="-1.17788">
        <ele>105</ele>
        <time>2010-01-01T02:27:33Z</time>
      </trkpt>
      <trkpt lat="46.77377" lon="-1.17895">
        <ele>106</ele>
        <time>2010-01-01T02:28:03Z</time>
      </trkpt>
      <trkpt lat="46.7741" lon="-1.18027">
        <ele>105</ele>
        <time>2010-01-01T02:28:41Z</time>
      </trkpt>
      <trkpt lat="46.77448" lon="-1.18098">
        <ele>105</ele>
        <time>2010-01-01T02:29:06Z</time>
      </trkpt>
      <trkpt lat="46.77595" lon="-1.18342">
        <ele>101</ele>
        <time>2010-01-01T02:30:35Z</time>
      </trkpt>
      <trkpt lat="46.77636" lon="-1.18477">
        <ele>98</ele>
        <time>2010-01-01T02:31:16Z</time>
      </trkpt>
      <trkpt lat="46.77588" lon="-1.18504">
        <ele>97</ele>
        <time>2010-01-01T02:31:36Z</time>
      </trkpt>
      <trkpt lat="46.77554" lon="-1.1853">
        <ele>95</ele>
        <time>2010-01-01T02:31:51Z</time>
      </trkpt>
      <trkpt lat="46.77539" lon="-1.18549">
        <ele>95</ele>
        <time>2010-01-01T02:31:59Z</time>
      </trkpt>
      <trkpt lat="46.77472" lon="-1.18674">
        <ele>89</ele>
        <time>2010-01-01T02:32:43Z</time>
      </trkpt>
      <trkpt lat="46.77472" lon="-1.18714">
        <ele>88</ele>
        <time>2010-01-01T02:32:54Z</time>
      </trkpt>
      <trkpt lat="46.77485" lon="-1.18804">
        <ele>89</ele>
        <time>2010-01-01T02:33:19Z</time>
      </trkpt>
      <trkpt lat="46.77494" lon="-1.1887">
        <ele>92</ele>
        <time>2010-01-01T02:33:38Z</time>
      </trkpt>
      <trkpt lat="46.77485" lon="-1.18901">
        <ele>92</ele>
        <time>2010-01-01T02:33:47Z</time>
      </trkpt>
      <trkpt lat="46.7735" lon="-1.19093">
        <ele>100</ele>
        <time>2010-01-01T02:35:02Z</time>
      </trkpt>
      <trkpt lat="46.77213" lon="-1.19258">
        <ele>102</ele>
        <time>2010-01-01T02:36:13Z</time>
      </trkpt>
      <trkpt lat="46.77206" lon="-1.19242">
        <ele>102</ele>
        <time>2010-01-01T02:36:19Z</time>
      </trkpt>
      <trkpt lat="46.77181" lon="-1.19208">
        <ele>102</ele>
        <time>2010-01-01T02:36:32Z</time>
      </trkpt>
      <trkpt lat="46.76986" lon="-1.1897">
        <ele>101</ele>
        <time>2010-01-01T02:38:14Z</time>
      </trkpt>
      <trkpt lat="46.76974" lon="-1.18972">
        <ele>101</ele>
        <time>2010-01-01T02:38:19Z</time>
      </trkpt>
      <trkpt lat="46.76943" lon="-1.19014">
        <ele>98</ele>
        <time>2010-01-01T02:38:36Z</time>
      </trkpt>
      <trkpt lat="46.7693" lon="-1.19024">
        <ele>98</ele>
        <time>2010-01-01T02:38:42Z</time>
      </trkpt>
      <trkpt lat="46.76864" lon="-1.19034">
        <ele>97</ele>
        <time>2010-01-01T02:39:08Z</time>
      </trkpt>
      <trkpt lat="46.76833" lon="-1.1905">
        <ele>94</ele>
        <time>2010-01-01T02:39:21Z</time>
      </trkpt>
      <trkpt lat="46.76809" lon="-1.19071">
        <ele>90</ele>
        <time>2010-01-01T02:39:33Z</time>
      </trkpt>
      <trkpt lat="46.76783" lon="-1.19117">
        <ele>87</ele>
        <time>2010-01-01T02:39:49Z</time>
      </trkpt>
      <trkpt lat="46.76758" lon="-1.19158">
        <ele>87</ele>
        <time>2010-01-01T02:40:04Z</time>
      </trkpt>
      <trkpt lat="46.76719" lon="-1.19203">
        <ele>88</ele>
        <time>2010-01-01T02:40:24Z</time>
      </trkpt>
      <trkpt lat="46.76709" lon="-1.19221">
        <ele>88</ele>
        <time>2010-01-01T02:40:30Z</time>
      </trkpt>
      <trkpt lat="46.76684" lon="-1.19297">
        <ele>88</ele>
        <time>2010-01-01T02:40:53Z</time>
      </trkpt>
      <trkpt lat="46.76644" lon="-1.19386">
        <ele>93</ele>
        <time>2010-01-01T02:41:23Z</time>
      </trkpt>
      <trkpt lat="46.76623" lon="-1.19424">
        <ele>93</ele>
        <time>2010-01-01T02:41:36Z</time>
      </trkpt>
      <trkpt lat="46.76528" lon="-1.1955">
        <ele>90</ele>
        <time>2010-01-01T02:42:27Z</time>
      </trkpt>
      <trkpt lat="46.76497" lon="-1.19597">
        <ele>89</ele>
        <time>2010-01-01T02:42:45Z</time>
      </trkpt>
      <trkpt lat="46.76484" lon="-1.19614">
        <ele>88</ele>
        <time>2010-01-01T02:42:52Z</time>
      </trkpt>
      <trkpt lat="46.76466" lon="-1.19626">
        <ele>87</ele>
        <time>2010-01-01T02:43:00Z</time>
      </trkpt>
      <trkpt lat="46.76466" lon="-1.19609">
        <ele>87</ele>
        <time>2010-01-01T02:43:05Z</time>
      </trkpt>
      <trkpt lat="46.76469" lon="-1.1982">
        <ele>89</ele>
        <time>2010-01-01T02:44:03Z</time>
      </trkpt>
      <trkpt lat="46.76466" lon="-1.20228">
        <ele>90</ele>
        <time>2010-01-01T02:45:54Z</time>
      </trkpt>
      <trkpt lat="46.76457" lon="-1.20277">
        <ele>91</ele>
        <time>2010-01-01T02:46:08Z</time>
      </trkpt>
      <trkpt lat="46.76396" lon="-1.20418">
        <ele>91</ele>
        <time>2010-01-01T02:46:54Z</time>
      </trkpt>
      <trkpt lat="46.76391" lon="-1.20437">
        <ele>91</ele>
        <time>2010-01-01T02:47:00Z</time>
      </trkpt>
      <trkpt lat="46.76382" lon="-1.20431">
        <ele>92</ele>
        <time>2010-01-01T02:47:04Z</time>
      </trkpt>
      <trkpt lat="46.76361" lon="-1.20363">
        <ele>94</ele>
        <time>2010-01-01T02:47:24Z</time>
      </trkpt>
      <trkpt lat="46.76303" lon="-1.20261">
        <ele>95</ele>
        <time>2010-01-01T02:48:00Z</time>
      </trkpt>
      <trkpt lat="46.76198" lon="-1.20075">
        <ele>94</ele>
        <time>2010-01-01T02:49:07Z</time>
      </trkpt>
      <trkpt lat="46.76189" lon="-1.20084">
        <ele>94</ele>
        <time>2010-01-01T02:49:11Z</time>
      </trkpt>
      <trkpt lat="46.76154" lon="-1.20127">
        <ele>94</ele>
        <time>2010-01-01T02:49:29Z</time>
      </trkpt>
      <trkpt lat="46.76088" lon="-1.2023">
        <ele>93</ele>
        <time>2010-01-01T02:50:08Z</time>
      </trkpt>
      <trkpt lat="46.7608" lon="-1.20248">
        <ele>93</ele>
        <time>2010-01-01T02:50:14Z</time>
      </trkpt>
      <trkpt lat="46.76064" lon="-1.20311">
        <ele>94</ele>
        <time>2010-01-01T02:50:32Z</time>
      </trkpt>
      <trkpt lat="46.76052" lon="-1.20341">
        <ele>95</ele>
        <time>2010-01-01T02:50:42Z</time>
      </trkpt>
      <trkpt lat="46.76032" lon="-1.20361">
        <ele>95</ele>
        <time>2010-01-01T02:50:51Z</time>
      </trkpt>
      <trkpt lat="46.76008" lon="-1.20362">
        <ele>95</ele>
        <time>2010-01-01T02:51:01Z</time>
      </trkpt>
      <trkpt lat="46.75955" lon="-1.20345">
        <ele>93</ele>
        <time>2010-01-01T02:51:23Z</time>
      </trkpt>
      <trkpt lat="46.75921" lon="-1.20346">
        <ele>91</ele>
        <time>2010-01-01T02:51:36Z</time>
      </trkpt>
      <trkpt lat="46.75857" lon="-1.20408">
        <ele>92</ele>
        <time>2010-01-01T02:52:07Z</time>
      </trkpt>
      <trkpt lat="46.75832" lon="-1.20424">
        <ele>92</ele>
        <time>2010-01-01T02:52:18Z</time>
      </trkpt>
      <trkpt lat="46.75775" lon="-1.20439">
        <ele>92</ele>
        <time>2010-01-01T02:52:41Z</time>
      </trkpt>
      <trkpt lat="46.75663" lon="-1.20458">
        <ele>93</ele>
        <time>2010-01-01T02:53:26Z</time>
      </trkpt>
      <trkpt lat="46.756" lon="-1.205">
        <ele>95</ele>
        <time>2010-01-01T02:53:54Z</time>
      </trkpt>
      <trkpt lat="46.75549" lon="-1.2056">
        <ele>97</ele>
        <time>2010-01-01T02:54:20Z</time>
      </trkpt>
      <trkpt lat="46.75488" lon="-1.2065">
        <ele>98</ele>
        <time>2010-01-01T02:54:55Z</time>
      </trkpt>
      <trkpt lat="46.75203" lon="-1.21001">
        <ele>108</ele>
        <time>2010-01-01T02:57:24Z</time>
      </trkpt>
      <trkpt lat="46.75028" lon="-1.21212">
        <ele>108</ele>
        <time>2010-01-01T02:58:55Z</time>
      </trkpt>
      <trkpt lat="46.75019" lon="-1.21223">
        <ele>107</ele>
        <time>2010-01-01T02:59:00Z</time>
      </trkpt>
      <trkpt lat="46.75002" lon="-1.21198">
        <ele>107</ele>
        <time>2010-01-01T02:59:10Z</time>
      </trkpt>
      <trkpt lat="46.74992" lon="-1.21173">
        <ele>108</ele>
        <time>2010-01-01T02:59:18Z</time>
      </trkpt>
      <trkpt lat="46.74939" lon="-1.21">
        <ele>109</ele>
        <time>2010-01-01T03:00:09Z</time>
      </trkpt>
      <trkpt lat="46.7483" lon="-1.20668">
        <ele>114</ele>
        <time>2010-01-01T03:01:50Z</time>
      </trkpt>
      <trkpt lat="46.74701" lon="-1.20126">
        <ele>113</ele>
        <time>2010-01-01T03:04:28Z</time>
      </trkpt>
      <trkpt lat="46.74608" lon="-1.19714">
        <ele>110</ele>
        <time>2010-01-01T03:06:27Z</time>
      </trkpt>
      <trkpt lat="46.74578" lon="-1.19601">
        <ele>111</ele>
        <time>2010-01-01T03:07:00Z</time>
      </trkpt>
      <trkpt lat="46.74559" lon="-1.19562">
        <ele>109</ele>
        <time>2010-01-01T03:07:13Z</time>
      </trkpt>
      <trkpt lat="46.7444" lon="-1.19413">
        <ele>110</ele>
        <time>2010-01-01T03:08:16Z</time>
      </trkpt>
      <trkpt lat="46.74405" lon="-1.19358">
        <ele>112</ele>
        <time>2010-01-01T03:08:37Z</time>
      </trkpt>
      <trkpt lat="46.74347" lon="-1.19195">
        <ele>111</ele>
        <time>2010-01-01T03:09:27Z</time>
      </trkpt>
      <trkpt lat="46.74148" lon="-1.18741">
        <ele>115</ele>
        <time>2010-01-01T03:11:55Z</time>
      </trkpt>
      <trkpt lat="46.74119" lon="-1.18689">
        <ele>116</ele>
        <time>2010-01-01T03:12:13Z</time>
      </trkpt>
      <trkpt lat="46.74081" lon="-1.18658">
        <ele>114</ele>
        <time>2010-01-01T03:12:31Z</time>
      </trkpt>
      <trkpt lat="46.73941" lon="-1.18581">
        <ele>112</ele>
        <time>2010-01-01T03:13:30Z</time>
      </trkpt>
      <trkpt lat="46.73635" lon="-1.18287">
        <ele>108</ele>
        <time>2010-01-01T03:15:57Z</time>
      </trkpt>
      <trkpt lat="46.73592" lon="-1.18255">
        <ele>107</ele>
        <time>2010-01-01T03:16:16Z</time>
      </trkpt>
      <trkpt lat="46.73448" lon="-1.18213">
        <ele>107</ele>
        <time>2010-01-01T03:17:15Z</time>
      </trkpt>
      <trkpt lat="46.73331" lon="-1.18224">
        <ele>103</ele>
        <time>2010-01-01T03:18:02Z</time>
      </trkpt>
      <trkpt lat="46.73299" lon="-1.18218">
        <ele>102</ele>
        <time>2010-01-01T03:18:15Z</time>
      </trkpt>
      <trkpt lat="46.73219" lon="-1.18191">
        <ele>99</ele>
        <time>2010-01-01T03:18:48Z</time>
      </trkpt>
      <trkpt lat="46.73154" lon="-1.182">
        <ele>97</ele>
        <time>2010-01-01T03:19:14Z</time>
      </trkpt>
      <trkpt lat="46.73095" lon="-1.18215">
        <ele>93</ele>
        <time>2010-01-01T03:19:38Z</time>
      </trkpt>
      <trkpt lat="46.7306" lon="-1.18213">
        <ele>93</ele>
        <time>2010-01-01T03:19:52Z</time>
      </trkpt>
      <trkpt lat="46.72924" lon="-1.1816">
        <ele>96</ele>
        <time>2010-01-01T03:20:48Z</time>
      </trkpt>
      <trkpt lat="46.72762" lon="-1.18057">
        <ele>96</ele>
        <time>2010-01-01T03:21:59Z</time>
      </trkpt>
      <trkpt lat="46.72587" lon="-1.17984">
        <ele>98</ele>
        <time>2010-01-01T03:23:12Z</time>
      </trkpt>
      <trkpt lat="46.72549" lon="-1.17976">
        <ele>99</ele>
        <time>2010-01-01T03:23:27Z</time>
      </trkpt>
      <trkpt lat="46.72369" lon="-1.17991">
        <ele>93</ele>
        <time>2010-01-01T03:24:40Z</time>
      </trkpt>
      <trkpt lat="46.723" lon="-1.17988">
        <ele>90</ele>
        <time>2010-01-01T03:25:07Z</time>
      </trkpt>
      <trkpt lat="46.72253" lon="-1.17958">
        <ele>89</ele>
        <time>2010-01-01T03:25:28Z</time>
      </trkpt>
      <trkpt lat="46.72235" lon="-1.17941">
        <ele>90</ele>
        <time>2010-01-01T03:25:36Z</time>
      </trkpt>
      <trkpt lat="46.72211" lon="-1.17907">
        <ele>90</ele>
        <time>2010-01-01T03:25:50Z</time>
      </trkpt>
      <trkpt lat="46.72182" lon="-1.17887">
        <ele>90</ele>
        <time>2010-01-01T03:26:03Z</time>
      </trkpt>
      <trkpt lat="46.72159" lon="-1.17879">
        <ele>90</ele>
        <time>2010-01-01T03:26:12Z</time>
      </trkpt>
      <trkpt lat="46.72151" lon="-1.17799">
        <ele>90</ele>
        <time>2010-01-01T03:26:34Z</time>
      </trkpt>
      <trkpt lat="46.7212" lon="-1.1782">
        <ele>92</ele>
        <time>2010-01-01T03:26:48Z</time>
      </trkpt>
      <trkpt lat="46.72162" lon="-1.17788">
        <ele>89</ele>
        <time>2010-01-01T03:27:07Z</time>
      </trkpt>
      <trkpt lat="46.72204" lon="-1.17746">
        <ele>87</ele>
        <time>2010-01-01T03:27:27Z</time>
      </trkpt>
      <trkpt lat="46.72219" lon="-1.17725">
        <ele>87</ele>
        <time>2010-01-01T03:27:36Z</time>
      </trkpt>
      <trkpt lat="46.72234" lon="-1.17698">
        <ele>86</ele>
        <time>2010-01-01T03:27:45Z</time>
      </trkpt>
      <trkpt lat="46.7225" lon="-1.17651">
        <ele>86</ele>
        <time>2010-01-01T03:28:00Z</time>
      </trkpt>
      <trkpt lat="46.7225" lon="-1.17596">
        <ele>86</ele>
        <time>2010-01-01T03:28:15Z</time>
      </trkpt>
      <trkpt lat="46.72181" lon="-1.17215">
        <ele>89</ele>
        <time>2010-01-01T03:30:03Z</time>
      </trkpt>
      <trkpt lat="46.72181" lon="-1.17192">
        <ele>89</ele>
        <time>2010-01-01T03:30:09Z</time>
      </trkpt>
      <trkpt lat="46.72358" lon="-1.1656">
        <ele>97</ele>
        <time>2010-01-01T03:33:16Z</time>
      </trkpt>
      <trkpt lat="46.72365" lon="-1.16526">
        <ele>99</ele>
        <time>2010-01-01T03:33:26Z</time>
      </trkpt>
      <trkpt lat="46.72381" lon="-1.16388">
        <ele>100</ele>
        <time>2010-01-01T03:34:05Z</time>
      </trkpt>
      <trkpt lat="46.72411" lon="-1.16012">
        <ele>99</ele>
        <time>2010-01-01T03:35:48Z</time>
      </trkpt>
      <trkpt lat="46.72425" lon="-1.15927">
        <ele>98</ele>
        <time>2010-01-01T03:36:12Z</time>
      </trkpt>
      <trkpt lat="46.72511" lon="-1.15596">
        <ele>91</ele>
        <time>2010-01-01T03:37:50Z</time>
      </trkpt>
      <trkpt lat="46.72582" lon="-1.15408">
        <ele>87</ele>
        <time>2010-01-01T03:38:48Z</time>
      </trkpt>
      <trkpt lat="46.72675" lon="-1.15187">
        <ele>81</ele>
        <time>2010-01-01T03:40:00Z</time>
      </trkpt>
      <trkpt lat="46.72756" lon="-1.15013">
        <ele>88</ele>
        <time>2010-01-01T03:40:57Z</time>
      </trkpt>
      <trkpt lat="46.72766" lon="-1.14975">
        <ele>90</ele>
        <time>2010-01-01T03:41:08Z</time>
      </trkpt>
      <trkpt lat="46.72838" lon="-1.14447">
        <ele>103</ele>
        <time>2010-01-01T03:43:36Z</time>
      </trkpt>
      <trkpt lat="46.72853" lon="-1.14397">
        <ele>102</ele>
        <time>2010-01-01T03:43:51Z</time>
      </trkpt>
      <trkpt lat="46.7288" lon="-1.1436">
        <ele>101</ele>
        <time>2010-01-01T03:44:06Z</time>
      </trkpt>
      <trkpt lat="46.72909" lon="-1.14345">
        <ele>100</ele>
        <time>2010-01-01T03:44:18Z</time>
      </trkpt>
      <trkpt lat="46.72961" lon="-1.14339">
        <ele>97</ele>
        <time>2010-01-01T03:44:39Z</time>
      </trkpt>
      <trkpt lat="46.73072" lon="-1.1435">
        <ele>92</ele>
        <time>2010-01-01T03:45:24Z</time>
      </trkpt>
      <trkpt lat="46.73096" lon="-1.14344">
        <ele>90</ele>
        <time>2010-01-01T03:45:34Z</time>
      </trkpt>
      <trkpt lat="46.73115" lon="-1.14328">
        <ele>88</ele>
        <time>2010-01-01T03:45:42Z</time>
      </trkpt>
      <trkpt lat="46.73135" lon="-1.14291">
        <ele>85</ele>
        <time>2010-01-01T03:45:55Z</time>
      </trkpt>
      <trkpt lat="46.73141" lon="-1.14253">
        <ele>82</ele>
        <time>2010-01-01T03:46:06Z</time>
      </trkpt>
      <trkpt lat="46.73136" lon="-1.14227">
        <ele>81</ele>
        <time>2010-01-01T03:46:13Z</time>
      </trkpt>
      <trkpt lat="46.73073" lon="-1.14127">
        <ele>81</ele>
        <time>2010-01-01T03:46:51Z</time>
      </trkpt>
      <trkpt lat="46.73063" lon="-1.14086">
        <ele>78</ele>
        <time>2010-01-01T03:47:03Z</time>
      </trkpt>
      <trkpt lat="46.73062" lon="-1.14056">
        <ele>77</ele>
        <time>2010-01-01T03:47:11Z</time>
      </trkpt>
      <trkpt lat="46.73146" lon="-1.13755">
        <ele>65</ele>
        <time>2010-01-01T03:48:40Z</time>
      </trkpt>
      <trkpt lat="46.73252" lon="-1.13395">
        <ele>51</ele>
        <time>2010-01-01T03:50:27Z</time>
      </trkpt>
      <trkpt lat="46.73282" lon="-1.12968">
        <ele>47</ele>
        <time>2010-01-01T03:52:25Z</time>
      </trkpt>
      <trkpt lat="46.73315" lon="-1.12851">
        <ele>46</ele>
        <time>2010-01-01T03:53:00Z</time>
      </trkpt>
      <trkpt lat="46.73366" lon="-1.12703">
        <ele>46</ele>
        <time>2010-01-01T03:53:45Z</time>
      </trkpt>
      <trkpt lat="46.73392" lon="-1.12627">
        <ele>45</ele>
        <time>2010-01-01T03:54:09Z</time>
      </trkpt>
      <trkpt lat="46.73403" lon="-1.12647">
        <ele>45</ele>
        <time>2010-01-01T03:54:16Z</time>
      </trkpt>
      <trkpt lat="46.73418" lon="-1.12727">
        <ele>47</ele>
        <time>2010-01-01T03:54:38Z</time>
      </trkpt>
      <trkpt lat="46.73429" lon="-1.12754">
        <ele>47</ele>
        <time>2010-01-01T03:54:47Z</time>
      </trkpt>
      <trkpt lat="46.735" lon="-1.12875">
        <ele>49</ele>
        <time>2010-01-01T03:55:31Z</time>
      </trkpt>
      <trkpt lat="46.73541" lon="-1.12961">
        <ele>49</ele>
        <time>2010-01-01T03:56:00Z</time>
      </trkpt>
      <trkpt lat="46.73557" lon="-1.13003">
        <ele>49</ele>
        <time>2010-01-01T03:56:13Z</time>
      </trkpt>
      <trkpt lat="46.73571" lon="-1.12994">
        <ele>49</ele>
        <time>2010-01-01T03:56:19Z</time>
      </trkpt>
      <trkpt lat="46.73624" lon="-1.12959">
        <ele>50</ele>
        <time>2010-01-01T03:56:42Z</time>
      </trkpt>
      <trkpt lat="46.73669" lon="-1.12938">
        <ele>50</ele>
        <time>2010-01-01T03:57:01Z</time>
      </trkpt>
      <trkpt lat="46.73683" lon="-1.12934">
        <ele>50</ele>
        <time>2010-01-01T03:57:07Z</time>
      </trkpt>
      <trkpt lat="46.737" lon="-1.12942">
        <ele>50</ele>
        <time>2010-01-01T03:57:14Z</time>
      </trkpt>
      <trkpt lat="46.73757" lon="-1.13003">
        <ele>49</ele>
        <time>2010-01-01T03:57:42Z</time>
      </trkpt>
      <trkpt lat="46.73819" lon="-1.13041">
        <ele>50</ele>
        <time>2010-01-01T03:58:09Z</time>
      </trkpt>
      <trkpt lat="46.7387" lon="-1.13058">
        <ele>50</ele>
        <time>2010-01-01T03:58:30Z</time>
      </trkpt>
      <trkpt lat="46.73892" lon="-1.13059">
        <ele>51</ele>
        <time>2010-01-01T03:58:39Z</time>
      </trkpt>
      <trkpt lat="46.73938" lon="-1.13051">
        <ele>51</ele>
        <time>2010-01-01T03:58:57Z</time>
      </trkpt>
      <trkpt lat="46.73992" lon="-1.13029">
        <ele>50</ele>
        <time>2010-01-01T03:59:20Z</time>
      </trkpt>
      <trkpt lat="46.74032" lon="-1.13009">
        <ele>49</ele>
        <time>2010-01-01T03:59:37Z</time>
      </trkpt>
      <trkpt lat="46.7411" lon="-1.12954">
        <ele>50</ele>
        <time>2010-01-01T04:00:11Z</time>
      </trkpt>
      <trkpt lat="46.74149" lon="-1.12936">
        <ele>51</ele>
        <time>2010-01-01T04:00:28Z</time>
      </trkpt>
      <trkpt lat="46.74266" lon="-1.12922">
        <ele>48</ele>
        <time>2010-01-01T04:01:15Z</time>
      </trkpt>
      <trkpt lat="46.74282" lon="-1.12916">
        <ele>48</ele>
        <time>2010-01-01T04:01:21Z</time>
      </trkpt>
      <trkpt lat="46.74306" lon="-1.12895">
        <ele>49</ele>
        <time>2010-01-01T04:01:33Z</time>
      </trkpt>
      <trkpt lat="46.74325" lon="-1.12871">
        <ele>49</ele>
        <time>2010-01-01T04:01:43Z</time>
      </trkpt>
      <trkpt lat="46.74374" lon="-1.12786">
        <ele>50</ele>
        <time>2010-01-01T04:02:13Z</time>
      </trkpt>
      <trkpt lat="46.74427" lon="-1.12686">
        <ele>52</ele>
        <time>2010-01-01T04:02:48Z</time>
      </trkpt>
      <trkpt lat="46.74456" lon="-1.12649">
        <ele>52</ele>
        <time>2010-01-01T04:03:03Z</time>
      </trkpt>
      <trkpt lat="46.74483" lon="-1.12626">
        <ele>52</ele>
        <time>2010-01-01T04:03:16Z</time>
      </trkpt>
      <trkpt lat="46.74606" lon="-1.12545">
        <ele>49</ele>
        <time>2010-01-01T04:04:10Z</time>
      </trkpt>
      <trkpt lat="46.7463" lon="-1.1252">
        <ele>48</ele>
        <time>2010-01-01T04:04:22Z</time>
      </trkpt>
      <trkpt lat="46.74654" lon="-1.12461">
        <ele>48</ele>
        <time>2010-01-01T04:04:40Z</time>
      </trkpt>
      <trkpt lat="46.74677" lon="-1.12303">
        <ele>53</ele>
        <time>2010-01-01T04:05:25Z</time>
      </trkpt>
      <trkpt lat="46.74684" lon="-1.12274">
        <ele>54</ele>
        <time>2010-01-01T04:05:33Z</time>
      </trkpt>
      <trkpt lat="46.74697" lon="-1.12226">
        <ele>55</ele>
        <time>2010-01-01T04:05:47Z</time>
      </trkpt>
      <trkpt lat="46.74713" lon="-1.12211">
        <ele>56</ele>
        <time>2010-01-01T04:05:55Z</time>
      </trkpt>
      <trkpt lat="46.74792" lon="-1.12224">
        <ele>56</ele>
        <time>2010-01-01T04:06:27Z</time>
      </trkpt>
      <trkpt lat="46.74787" lon="-1.12223">
        <ele>56</ele>
        <time>2010-01-01T04:06:29Z</time>
      </trkpt>
      <trkpt lat="46.7479" lon="-1.12057">
        <ele>55</ele>
        <time>2010-01-01T04:07:14Z</time>
      </trkpt>
      <trkpt lat="46.74785" lon="-1.12003">
        <ele>52</ele>
        <time>2010-01-01T04:07:29Z</time>
      </trkpt>
      <trkpt lat="46.74668" lon="-1.11429">
        <ele>50</ele>
        <time>2010-01-01T04:10:14Z</time>
      </trkpt>
      <trkpt lat="46.74651" lon="-1.11426">
        <ele>50</ele>
        <time>2010-01-01T04:10:20Z</time>
      </trkpt>
      <trkpt lat="46.74559" lon="-1.11414">
        <ele>52</ele>
        <time>2010-01-01T04:10:57Z</time>
      </trkpt>
      <trkpt lat="46.74409" lon="-1.11438">
        <ele>54</ele>
        <time>2010-01-01T04:11:58Z</time>
      </trkpt>
      <trkpt lat="46.74404" lon="-1.11432">
        <ele>54</ele>
        <time>2010-01-01T04:12:00Z</time>
      </trkpt>
      <trkpt lat="46.74403" lon="-1.11408">
        <ele>54</ele>
        <time>2010-01-01T04:12:07Z</time>
      </trkpt>
      <trkpt lat="46.74396" lon="-1.1138">
        <ele>54</ele>
        <time>2010-01-01T04:12:15Z</time>
      </trkpt>
      <trkpt lat="46.74397" lon="-1.11333">
        <ele>54</ele>
        <time>2010-01-01T04:12:28Z</time>
      </trkpt>
      <trkpt lat="46.74404" lon="-1.11294">
        <ele>54</ele>
        <time>2010-01-01T04:12:39Z</time>
      </trkpt>
      <trkpt lat="46.74404" lon="-1.11258">
        <ele>54</ele>
        <time>2010-01-01T04:12:49Z</time>
      </trkpt>
      <trkpt lat="46.74396" lon="-1.11214">
        <ele>54</ele>
        <time>2010-01-01T04:13:01Z</time>
      </trkpt>
      <trkpt lat="46.74383" lon="-1.11172">
        <ele>54</ele>
        <time>2010-01-01T04:13:14Z</time>
      </trkpt>
      <trkpt lat="46.74352" lon="-1.11121">
        <ele>54</ele>
        <time>2010-01-01T04:13:33Z</time>
      </trkpt>
      <trkpt lat="46.743" lon="-1.11049">
        <ele>54</ele>
        <time>2010-01-01T04:14:01Z</time>
      </trkpt>
      <trkpt lat="46.7418" lon="-1.10705">
        <ele>55</ele>
        <time>2010-01-01T04:15:47Z</time>
      </trkpt>
      <trkpt lat="46.74146" lon="-1.10619">
        <ele>55</ele>
        <time>2010-01-01T04:16:15Z</time>
      </trkpt>
      <trkpt lat="46.74105" lon="-1.10553">
        <ele>55</ele>
        <time>2010-01-01T04:16:39Z</time>
      </trkpt>
      <trkpt lat="46.73923" lon="-1.10312">
        <ele>61</ele>
        <time>2010-01-01T04:18:17Z</time>
      </trkpt>
      <trkpt lat="46.73879" lon="-1.10237">
        <ele>66</ele>
        <time>2010-01-01T04:18:45Z</time>
      </trkpt>
      <trkpt lat="46.7387" lon="-1.10215">
        <ele>67</ele>
        <time>2010-01-01T04:18:52Z</time>
      </trkpt>
      <trkpt lat="46.73857" lon="-1.10154">
        <ele>67</ele>
        <time>2010-01-01T04:19:09Z</time>
      </trkpt>
      <trkpt lat="46.73841" lon="-1.10048">
        <ele>69</ele>
        <time>2010-01-01T04:19:39Z</time>
      </trkpt>
      <trkpt lat="46.73832" lon="-1.09965">
        <ele>71</ele>
        <time>2010-01-01T04:20:02Z</time>
      </trkpt>
      <trkpt lat="46.73833" lon="-1.0994">
        <ele>70</ele>
        <time>2010-01-01T04:20:09Z</time>
      </trkpt>
      <trkpt lat="46.7386" lon="-1.09829">
        <ele>65</ele>
        <time>2010-01-01T04:20:41Z</time>
      </trkpt>
      <trkpt lat="46.73864" lon="-1.09799">
        <ele>65</ele>
        <time>2010-01-01T04:20:49Z</time>
      </trkpt>
      <trkpt lat="46.73877" lon="-1.0964">
        <ele>61</ele>
        <time>2010-01-01T04:21:33Z</time>
      </trkpt>
      <trkpt lat="46.73878" lon="-1.09552">
        <ele>59</ele>
        <time>2010-01-01T04:21:58Z</time>
      </trkpt>
      <trkpt lat="46.73869" lon="-1.09501">
        <ele>60</ele>
        <time>2010-01-01T04:22:12Z</time>
      </trkpt>
      <trkpt lat="46.73843" lon="-1.09448">
        <ele>62</ele>
        <time>2010-01-01T04:22:30Z</time>
      </trkpt>
      <trkpt lat="46.73839" lon="-1.09427">
        <ele>62</ele>
        <time>2010-01-01T04:22:36Z</time>
      </trkpt>
      <trkpt lat="46.7384" lon="-1.09411">
        <ele>62</ele>
        <time>2010-01-01T04:22:40Z</time>
      </trkpt>
      <trkpt lat="46.73857" lon="-1.0935">
        <ele>63</ele>
        <time>2010-01-01T04:22:58Z</time>
      </trkpt>
      <trkpt lat="46.73906" lon="-1.09218">
        <ele>64</ele>
        <time>2010-01-01T04:23:40Z</time>
      </trkpt>
      <trkpt lat="46.73923" lon="-1.09152">
        <ele>64</ele>
        <time>2010-01-01T04:23:59Z</time>
      </trkpt>
      <trkpt lat="46.73934" lon="-1.09092">
        <ele>64</ele>
        <time>2010-01-01T04:24:16Z</time>
      </trkpt>
      <trkpt lat="46.73941" lon="-1.08933">
        <ele>67</ele>
        <time>2010-01-01T04:25:00Z</time>
      </trkpt>
      <trkpt lat="46.73959" lon="-1.08814">
        <ele>70</ele>
        <time>2010-01-01T04:25:33Z</time>
      </trkpt>
      <trkpt lat="46.7398" lon="-1.08722">
        <ele>71</ele>
        <time>2010-01-01T04:26:00Z</time>
      </trkpt>
      <trkpt lat="46.74015" lon="-1.08611">
        <ele>74</ele>
        <time>2010-01-01T04:26:33Z</time>
      </trkpt>
      <trkpt lat="46.74004" lon="-1.08601">
        <ele>74</ele>
        <time>2010-01-01T04:26:38Z</time>
      </trkpt>
      <trkpt lat="46.73902" lon="-1.08514">
        <ele>73</ele>
        <time>2010-01-01T04:27:26Z</time>
      </trkpt>
      <trkpt lat="46.73906" lon="-1.08489">
        <ele>71</ele>
        <time>2010-01-01T04:27:33Z</time>
      </trkpt>
      <trkpt lat="46.73875" lon="-1.08349">
        <ele>69</ele>
        <time>2010-01-01T04:28:13Z</time>
      </trkpt>
      <trkpt lat="46.73846" lon="-1.0816">
        <ele>66</ele>
        <time>2010-01-01T04:29:06Z</time>
      </trkpt>
      <trkpt lat="46.73825" lon="-1.07898">
        <ele>68</ele>
        <time>2010-01-01T04:30:19Z</time>
      </trkpt>
      <trkpt lat="46.73805" lon="-1.07764">
        <ele>71</ele>
        <time>2010-01-01T04:30:56Z</time>
      </trkpt>
      <trkpt lat="46.73725" lon="-1.07388">
        <ele>70</ele>
        <time>2010-01-01T04:32:44Z</time>
      </trkpt>
      <trkpt lat="46.73709" lon="-1.07326">
        <ele>70</ele>
        <time>2010-01-01T04:33:02Z</time>
      </trkpt>
      <trkpt lat="46.73692" lon="-1.07282">
        <ele>70</ele>
        <time>2010-01-01T04:33:16Z</time>
      </trkpt>
      <trkpt lat="46.7358" lon="-1.07072">
        <ele>64</ele>
        <time>2010-01-01T04:34:29Z</time>
      </trkpt>
      <trkpt lat="46.73499" lon="-1.06938">
        <ele>70</ele>
        <time>2010-01-01T04:35:18Z</time>
      </trkpt>
      <trkpt lat="46.73451" lon="-1.06847">
        <ele>70</ele>
        <time>2010-01-01T04:35:50Z</time>
      </trkpt>
      <trkpt lat="46.73411" lon="-1.06788">
        <ele>70</ele>
        <time>2010-01-01T04:36:13Z</time>
      </trkpt>
      <trkpt lat="46.73345" lon="-1.06714">
        <ele>69</ele>
        <time>2010-01-01T04:36:46Z</time>
      </trkpt>
      <trkpt lat="46.73302" lon="-1.06635">
        <ele>69</ele>
        <time>2010-01-01T04:37:13Z</time>
      </trkpt>
      <trkpt lat="46.73271" lon="-1.06597">
        <ele>69</ele>
        <time>2010-01-01T04:37:30Z</time>
      </trkpt>
      <trkpt lat="46.73204" lon="-1.06539">
        <ele>67</ele>
        <time>2010-01-01T04:38:01Z</time>
      </trkpt>
      <trkpt lat="46.73176" lon="-1.06528">
        <ele>66</ele>
        <time>2010-01-01T04:38:13Z</time>
      </trkpt>
      <trkpt lat="46.73155" lon="-1.06537">
        <ele>65</ele>
        <time>2010-01-01T04:38:21Z</time>
      </trkpt>
      <trkpt lat="46.73097" lon="-1.06583">
        <ele>63</ele>
        <time>2010-01-01T04:38:48Z</time>
      </trkpt>
      <trkpt lat="46.73084" lon="-1.06567">
        <ele>64</ele>
        <time>2010-01-01T04:38:54Z</time>
      </trkpt>
      <trkpt lat="46.73041" lon="-1.06492">
        <ele>64</ele>
        <time>2010-01-01T04:39:21Z</time>
      </trkpt>
      <trkpt lat="46.73023" lon="-1.06445">
        <ele>65</ele>
        <time>2010-01-01T04:39:36Z</time>
      </trkpt>
      <trkpt lat="46.7302" lon="-1.06427">
        <ele>66</ele>
        <time>2010-01-01T04:39:41Z</time>
      </trkpt>
      <trkpt lat="46.7302" lon="-1.06348">
        <ele>69</ele>
        <time>2010-01-01T04:40:03Z</time>
      </trkpt>
      <trkpt lat="46.73024" lon="-1.06329">
        <ele>69</ele>
        <time>2010-01-01T04:40:08Z</time>
      </trkpt>
      <trkpt lat="46.73038" lon="-1.06305">
        <ele>69</ele>
        <time>2010-01-01T04:40:17Z</time>
      </trkpt>
      <trkpt lat="46.73081" lon="-1.06252">
        <ele>68</ele>
        <time>2010-01-01T04:40:39Z</time>
      </trkpt>
      <trkpt lat="46.73095" lon="-1.06227">
        <ele>67</ele>
        <time>2010-01-01T04:40:48Z</time>
      </trkpt>
      <trkpt lat="46.73105" lon="-1.06187">
        <ele>68</ele>
        <time>2010-01-01T04:41:00Z</time>
      </trkpt>
      <trkpt lat="46.731" lon="-1.06158">
        <ele>68</ele>
        <time>2010-01-01T04:41:08Z</time>
      </trkpt>
      <trkpt lat="46.73074" lon="-1.06095">
        <ele>69</ele>
        <time>2010-01-01T04:41:28Z</time>
      </trkpt>
      <trkpt lat="46.73057" lon="-1.0602">
        <ele>68</ele>
        <time>2010-01-01T04:41:50Z</time>
      </trkpt>
      <trkpt lat="46.73052" lon="-1.05971">
        <ele>67</ele>
        <time>2010-01-01T04:42:04Z</time>
      </trkpt>
      <trkpt lat="46.7305" lon="-1.05877">
        <ele>68</ele>
        <time>2010-01-01T04:42:29Z</time>
      </trkpt>
      <trkpt lat="46.73058" lon="-1.05749">
        <ele>69</ele>
        <time>2010-01-01T04:43:05Z</time>
      </trkpt>
      <trkpt lat="46.73107" lon="-1.05507">
        <ele>72</ele>
        <time>2010-01-01T04:44:14Z</time>
      </trkpt>
      <trkpt lat="46.73115" lon="-1.05422">
        <ele>73</ele>
        <time>2010-01-01T04:44:38Z</time>
      </trkpt>
      <trkpt lat="46.73111" lon="-1.05199">
        <ele>75</ele>
        <time>2010-01-01T04:45:39Z</time>
      </trkpt>
      <trkpt lat="46.73129" lon="-1.04878">
        <ele>78</ele>
        <time>2010-01-01T04:47:07Z</time>
      </trkpt>
      <trkpt lat="46.73129" lon="-1.04804">
        <ele>78</ele>
        <time>2010-01-01T04:47:27Z</time>
      </trkpt>
      <trkpt lat="46.73114" lon="-1.04647">
        <ele>80</ele>
        <time>2010-01-01T04:48:11Z</time>
      </trkpt>
      <trkpt lat="46.73089" lon="-1.04557">
        <ele>79</ele>
        <time>2010-01-01T04:48:38Z</time>
      </trkpt>
      <trkpt lat="46.73071" lon="-1.0451">
        <ele>80</ele>
        <time>2010-01-01T04:48:52Z</time>
      </trkpt>
      <trkpt lat="46.73054" lon="-1.04473">
        <ele>80</ele>
        <time>2010-01-01T04:49:05Z</time>
      </trkpt>
      <trkpt lat="46.73026" lon="-1.04434">
        <ele>82</ele>
        <time>2010-01-01T04:49:20Z</time>
      </trkpt>
      <trkpt lat="46.72998" lon="-1.04413">
        <ele>82</ele>
        <time>2010-01-01T04:49:33Z</time>
      </trkpt>
      <trkpt lat="46.7289" lon="-1.04367">
        <ele>82</ele>
        <time>2010-01-01T04:50:18Z</time>
      </trkpt>
      <trkpt lat="46.72861" lon="-1.04348">
        <ele>84</ele>
        <time>2010-01-01T04:50:30Z</time>
      </trkpt>
      <trkpt lat="46.72817" lon="-1.04304">
        <ele>83</ele>
        <time>2010-01-01T04:50:52Z</time>
      </trkpt>
      <trkpt lat="46.72797" lon="-1.04275">
        <ele>83</ele>
        <time>2010-01-01T04:51:03Z</time>
      </trkpt>
      <trkpt lat="46.72753" lon="-1.0419">
        <ele>82</ele>
        <time>2010-01-01T04:51:32Z</time>
      </trkpt>
      <trkpt lat="46.7271" lon="-1.04057">
        <ele>78</ele>
        <time>2010-01-01T04:52:13Z</time>
      </trkpt>
      <trkpt lat="46.72514" lon="-1.03304">
        <ele>83</ele>
        <time>2010-01-01T04:55:54Z</time>
      </trkpt>
      <trkpt lat="46.72406" lon="-1.02997">
        <ele>83</ele>
        <time>2010-01-01T04:57:28Z</time>
      </trkpt>
      <trkpt lat="46.72379" lon="-1.0288">
        <ele>84</ele>
        <time>2010-01-01T04:58:02Z</time>
      </trkpt>
      <trkpt lat="46.72363" lon="-1.02875">
        <ele>85</ele>
        <time>2010-01-01T04:58:09Z</time>
      </trkpt>
      <trkpt lat="46.72357" lon="-1.02863">
        <ele>86</ele>
        <time>2010-01-01T04:58:13Z</time>
      </trkpt>
      <trkpt lat="46.72359" lon="-1.0284">
        <ele>86</ele>
        <time>2010-01-01T04:58:19Z</time>
      </trkpt>
      <trkpt lat="46.72365" lon="-1.02832">
        <ele>85</ele>
        <time>2010-01-01T04:58:22Z</time>
      </trkpt>
      <trkpt lat="46.72375" lon="-1.02828">
        <ele>85</ele>
        <time>2010-01-01T04:58:27Z</time>
      </trkpt>
      <trkpt lat="46.72383" lon="-1.02831">
        <ele>85</ele>
        <time>2010-01-01T04:58:30Z</time>
      </trkpt>
      <trkpt lat="46.72392" lon="-1.02848">
        <ele>84</ele>
        <time>2010-01-01T04:58:36Z</time>
      </trkpt>
      <trkpt lat="46.72419" lon="-1.0284">
        <ele>84</ele>
        <time>2010-01-01T04:58:47Z</time>
      </trkpt>
      <trkpt lat="46.72601" lon="-1.02816">
        <ele>86</ele>
        <time>2010-01-01T05:00:00Z</time>
      </trkpt>
      <trkpt lat="46.72743" lon="-1.02809">
        <ele>89</ele>
        <time>2010-01-01T05:00:57Z</time>
      </trkpt>
      <trkpt lat="46.72777" lon="-1.02813">
        <ele>88</ele>
        <time>2010-01-01T05:01:11Z</time>
      </trkpt>
      <trkpt lat="46.72808" lon="-1.02825">
        <ele>89</ele>
        <time>2010-01-01T05:01:23Z</time>
      </trkpt>
      <trkpt lat="46.72917" lon="-1.02882">
        <ele>90</ele>
        <time>2010-01-01T05:02:10Z</time>
      </trkpt>
      <trkpt lat="46.73018" lon="-1.02924">
        <ele>89</ele>
        <time>2010-01-01T05:02:52Z</time>
      </trkpt>
      <trkpt lat="46.73087" lon="-1.02901">
        <ele>88</ele>
        <time>2010-01-01T05:03:20Z</time>
      </trkpt>
      <trkpt lat="46.73135" lon="-1.02907">
        <ele>86</ele>
        <time>2010-01-01T05:03:39Z</time>
      </trkpt>
      <trkpt lat="46.73244" lon="-1.02932">
        <ele>84</ele>
        <time>2010-01-01T05:04:24Z</time>
      </trkpt>
      <trkpt lat="46.73292" lon="-1.02936">
        <ele>84</ele>
        <time>2010-01-01T05:04:43Z</time>
      </trkpt>
      <trkpt lat="46.73386" lon="-1.02924">
        <ele>83</ele>
        <time>2010-01-01T05:05:21Z</time>
      </trkpt>
      <trkpt lat="46.73644" lon="-1.02923">
        <ele>86</ele>
        <time>2010-01-01T05:07:04Z</time>
      </trkpt>
      <trkpt lat="46.73715" lon="-1.02916">
        <ele>88</ele>
        <time>2010-01-01T05:07:32Z</time>
      </trkpt>
      <trkpt lat="46.73829" lon="-1.02896">
        <ele>88</ele>
        <time>2010-01-01T05:08:18Z</time>
      </trkpt>
      <trkpt lat="46.73944" lon="-1.0286">
        <ele>83</ele>
        <time>2010-01-01T05:09:05Z</time>
      </trkpt>
      <trkpt lat="46.73993" lon="-1.02855">
        <ele>84</ele>
        <time>2010-01-01T05:09:25Z</time>
      </trkpt>
      <trkpt lat="46.74036" lon="-1.02839">
        <ele>84</ele>
        <time>2010-01-01T05:09:43Z</time>
      </trkpt>
      <trkpt lat="46.74109" lon="-1.02796">
        <ele>85</ele>
        <time>2010-01-01T05:10:14Z</time>
      </trkpt>
      <trkpt lat="46.7417" lon="-1.02775">
        <ele>82</ele>
        <time>2010-01-01T05:10:39Z</time>
      </trkpt>
      <trkpt lat="46.74284" lon="-1.02749">
        <ele>78</ele>
        <time>2010-01-01T05:11:26Z</time>
      </trkpt>
      <trkpt lat="46.74328" lon="-1.02732">
        <ele>78</ele>
        <time>2010-01-01T05:11:44Z</time>
      </trkpt>
      <trkpt lat="46.74345" lon="-1.02719">
        <ele>78</ele>
        <time>2010-01-01T05:11:51Z</time>
      </trkpt>
      <trkpt lat="46.74367" lon="-1.02665">
        <ele>78</ele>
        <time>2010-01-01T05:12:09Z</time>
      </trkpt>
      <trkpt lat="46.74399" lon="-1.02619">
        <ele>78</ele>
        <time>2010-01-01T05:12:27Z</time>
      </trkpt>
      <trkpt lat="46.74421" lon="-1.02559">
        <ele>77</ele>
        <time>2010-01-01T05:12:45Z</time>
      </trkpt>
      <trkpt lat="46.74456" lon="-1.02415">
        <ele>78</ele>
        <time>2010-01-01T05:13:27Z</time>
      </trkpt>
      <trkpt lat="46.74481" lon="-1.02369">
        <ele>78</ele>
        <time>2010-01-01T05:13:43Z</time>
      </trkpt>
      <trkpt lat="46.7452" lon="-1.02324">
        <ele>79</ele>
        <time>2010-01-01T05:14:03Z</time>
      </trkpt>
      <trkpt lat="46.74538" lon="-1.02293">
        <ele>80</ele>
        <time>2010-01-01T05:14:14Z</time>
      </trkpt>
      <trkpt lat="46.7467" lon="-1.01973">
        <ele>86</ele>
        <time>2010-01-01T05:15:57Z</time>
      </trkpt>
      <trkpt lat="46.74699" lon="-1.01908">
        <ele>86</ele>
        <time>2010-01-01T05:16:18Z</time>
      </trkpt>
      <trkpt lat="46.74716" lon="-1.01884">
        <ele>87</ele>
        <time>2010-01-01T05:16:28Z</time>
      </trkpt>
      <trkpt lat="46.74749" lon="-1.01855">
        <ele>87</ele>
        <time>2010-01-01T05:16:43Z</time>
      </trkpt>
      <trkpt lat="46.74888" lon="-1.01753">
        <ele>91</ele>
        <time>2010-01-01T05:17:45Z</time>
      </trkpt>
      <trkpt lat="46.7497" lon="-1.01745">
        <ele>93</ele>
        <time>2010-01-01T05:18:18Z</time>
      </trkpt>
      <trkpt lat="46.75084" lon="-1.01695">
        <ele>94</ele>
        <time>2010-01-01T05:19:06Z</time>
      </trkpt>
      <trkpt lat="46.75198" lon="-1.01679">
        <ele>96</ele>
        <time>2010-01-01T05:19:52Z</time>
      </trkpt>
      <trkpt lat="46.75454" lon="-1.01549">
        <ele>93</ele>
        <time>2010-01-01T05:21:40Z</time>
      </trkpt>
      <trkpt lat="46.75593" lon="-1.01471">
        <ele>91</ele>
        <time>2010-01-01T05:22:40Z</time>
      </trkpt>
      <trkpt lat="46.75672" lon="-1.01448">
        <ele>87</ele>
        <time>2010-01-01T05:23:12Z</time>
      </trkpt>
      <trkpt lat="46.75727" lon="-1.01441">
        <ele>85</ele>
        <time>2010-01-01T05:23:34Z</time>
      </trkpt>
      <trkpt lat="46.75756" lon="-1.01448">
        <ele>84</ele>
        <time>2010-01-01T05:23:46Z</time>
      </trkpt>
      <trkpt lat="46.75938" lon="-1.01552">
        <ele>82</ele>
        <time>2010-01-01T05:25:04Z</time>
      </trkpt>
      <trkpt lat="46.76041" lon="-1.01628">
        <ele>83</ele>
        <time>2010-01-01T05:25:50Z</time>
      </trkpt>
      <trkpt lat="46.76126" lon="-1.01679">
        <ele>85</ele>
        <time>2010-01-01T05:26:27Z</time>
      </trkpt>
      <trkpt lat="46.76173" lon="-1.0169">
        <ele>86</ele>
        <time>2010-01-01T05:26:46Z</time>
      </trkpt>
      <trkpt lat="46.76283" lon="-1.01684">
        <ele>89</ele>
        <time>2010-01-01T05:27:30Z</time>
      </trkpt>
      <trkpt lat="46.76311" lon="-1.01689">
        <ele>92</ele>
        <time>2010-01-01T05:27:42Z</time>
      </trkpt>
      <trkpt lat="46.76382" lon="-1.01735">
        <ele>96</ele>
        <time>2010-01-01T05:28:13Z</time>
      </trkpt>
      <trkpt lat="46.76468" lon="-1.01771">
        <ele>98</ele>
        <time>2010-01-01T05:28:48Z</time>
      </trkpt>
      <trkpt lat="46.76527" lon="-1.01803">
        <ele>101</ele>
        <time>2010-01-01T05:29:14Z</time>
      </trkpt>
      <trkpt lat="46.7666" lon="-1.01889">
        <ele>105</ele>
        <time>2010-01-01T05:30:12Z</time>
      </trkpt>
      <trkpt lat="46.76742" lon="-1.01924">
        <ele>107</ele>
        <time>2010-01-01T05:30:46Z</time>
      </trkpt>
      <trkpt lat="46.76796" lon="-1.01932">
        <ele>106</ele>
        <time>2010-01-01T05:31:08Z</time>
      </trkpt>
      <trkpt lat="46.76896" lon="-1.01915">
        <ele>108</ele>
        <time>2010-01-01T05:31:48Z</time>
      </trkpt>
      <trkpt lat="46.77022" lon="-1.01881">
        <ele>108</ele>
        <time>2010-01-01T05:32:39Z</time>
      </trkpt>
      <trkpt lat="46.77099" lon="-1.01838">
        <ele>106</ele>
        <time>2010-01-01T05:33:12Z</time>
      </trkpt>
      <trkpt lat="46.77182" lon="-1.01832">
        <ele>101</ele>
        <time>2010-01-01T05:33:46Z</time>
      </trkpt>
      <trkpt lat="46.7724" lon="-1.01815">
        <ele>99</ele>
        <time>2010-01-01T05:34:09Z</time>
      </trkpt>
      <trkpt lat="46.77402" lon="-1.01736">
        <ele>92</ele>
        <time>2010-01-01T05:35:18Z</time>
      </trkpt>
      <trkpt lat="46.77458" lon="-1.01697">
        <ele>91</ele>
        <time>2010-01-01T05:35:43Z</time>
      </trkpt>
      <trkpt lat="46.77566" lon="-1.01609">
        <ele>89</ele>
        <time>2010-01-01T05:36:32Z</time>
      </trkpt>
      <trkpt lat="46.77643" lon="-1.01532">
        <ele>88</ele>
        <time>2010-01-01T05:37:09Z</time>
      </trkpt>
      <trkpt lat="46.77675" lon="-1.01486">
        <ele>90</ele>
        <time>2010-01-01T05:37:27Z</time>
      </trkpt>
      <trkpt lat="46.77703" lon="-1.01426">
        <ele>92</ele>
        <time>2010-01-01T05:37:47Z</time>
      </trkpt>
      <trkpt lat="46.77722" lon="-1.01375">
        <ele>94</ele>
        <time>2010-01-01T05:38:03Z</time>
      </trkpt>
      <trkpt lat="46.77734" lon="-1.01327">
        <ele>97</ele>
        <time>2010-01-01T05:38:17Z</time>
      </trkpt>
      <trkpt lat="46.77736" lon="-1.01277">
        <ele>99</ele>
        <time>2010-01-01T05:38:31Z</time>
      </trkpt>
      <trkpt lat="46.77732" lon="-1.01204">
        <ele>101</ele>
        <time>2010-01-01T05:38:51Z</time>
      </trkpt>
      <trkpt lat="46.77699" lon="-1.01005">
        <ele>100</ele>
        <time>2010-01-01T05:39:47Z</time>
      </trkpt>
      <trkpt lat="46.77702" lon="-1.0098">
        <ele>101</ele>
        <time>2010-01-01T05:39:54Z</time>
      </trkpt>
      <trkpt lat="46.77732" lon="-1.00951">
        <ele>106</ele>
        <time>2010-01-01T05:40:09Z</time>
      </trkpt>
      <trkpt lat="46.7778" lon="-1.00934">
        <ele>109</ele>
        <time>2010-01-01T05:40:28Z</time>
      </trkpt>
      <trkpt lat="46.77805" lon="-1.00914">
        <ele>109</ele>
        <time>2010-01-01T05:40:40Z</time>
      </trkpt>
      <trkpt lat="46.77866" lon="-1.00899">
        <ele>110</ele>
        <time>2010-01-01T05:41:04Z</time>
      </trkpt>
      <trkpt lat="46.77904" lon="-1.00861">
        <ele>109</ele>
        <time>2010-01-01T05:41:23Z</time>
      </trkpt>
      <trkpt lat="46.77936" lon="-1.00789">
        <ele>109</ele>
        <time>2010-01-01T05:41:46Z</time>
      </trkpt>
      <trkpt lat="46.77961" lon="-1.00744">
        <ele>108</ele>
        <time>2010-01-01T05:42:02Z</time>
      </trkpt>
      <trkpt lat="46.7799" lon="-1.00712">
        <ele>106</ele>
        <time>2010-01-01T05:42:17Z</time>
      </trkpt>
      <trkpt lat="46.78023" lon="-1.00665">
        <ele>103</ele>
        <time>2010-01-01T05:42:35Z</time>
      </trkpt>
      <trkpt lat="46.78031" lon="-1.00646">
        <ele>101</ele>
        <time>2010-01-01T05:42:41Z</time>
      </trkpt>
      <trkpt lat="46.78049" lon="-1.00556">
        <ele>99</ele>
        <time>2010-01-01T05:43:07Z</time>
      </trkpt>
      <trkpt lat="46.78065" lon="-1.00505">
        <ele>95</ele>
        <time>2010-01-01T05:43:23Z</time>
      </trkpt>
      <trkpt lat="46.78086" lon="-1.0047">
        <ele>91</ele>
        <time>2010-01-01T05:43:35Z</time>
      </trkpt>
      <trkpt lat="46.78099" lon="-1.00461">
        <ele>90</ele>
        <time>2010-01-01T05:43:41Z</time>
      </trkpt>
      <trkpt lat="46.78127" lon="-1.00453">
        <ele>90</ele>
        <time>2010-01-01T05:43:52Z</time>
      </trkpt>
      <trkpt lat="46.78182" lon="-1.00444">
        <ele>94</ele>
        <time>2010-01-01T05:44:15Z</time>
      </trkpt>
      <trkpt lat="46.7821" lon="-1.00433">
        <ele>97</ele>
        <time>2010-01-01T05:44:26Z</time>
      </trkpt>
      <trkpt lat="46.78239" lon="-1.00413">
        <ele>100</ele>
        <time>2010-01-01T05:44:39Z</time>
      </trkpt>
      <trkpt lat="46.7827" lon="-1.0037">
        <ele>103</ele>
        <time>2010-01-01T05:44:56Z</time>
      </trkpt>
      <trkpt lat="46.7832" lon="-1.00262">
        <ele>107</ele>
        <time>2010-01-01T05:45:32Z</time>
      </trkpt>
      <trkpt lat="46.78357" lon="-1.00207">
        <ele>109</ele>
        <time>2010-01-01T05:45:53Z</time>
      </trkpt>
      <trkpt lat="46.78463" lon="-1.00151">
        <ele>106</ele>
        <time>2010-01-01T05:46:38Z</time>
      </trkpt>
      <trkpt lat="46.78556" lon="-1.00033">
        <ele>103</ele>
        <time>2010-01-01T05:47:27Z</time>
      </trkpt>
      <trkpt lat="46.78592" lon="-0.99996">
        <ele>101</ele>
        <time>2010-01-01T05:47:45Z</time>
      </trkpt>
      <trkpt lat="46.78683" lon="-0.99946">
        <ele>96</ele>
        <time>2010-01-01T05:48:24Z</time>
      </trkpt>
      <trkpt lat="46.78831" lon="-0.99825">
        <ele>98</ele>
        <time>2010-01-01T05:49:32Z</time>
      </trkpt>
      <trkpt lat="46.78862" lon="-0.99813">
        <ele>100</ele>
        <time>2010-01-01T05:49:45Z</time>
      </trkpt>
      <trkpt lat="46.78927" lon="-0.99817">
        <ele>101</ele>
        <time>2010-01-01T05:50:11Z</time>
      </trkpt>
      <trkpt lat="46.78945" lon="-0.99818">
        <ele>102</ele>
        <time>2010-01-01T05:50:18Z</time>
      </trkpt>
      <trkpt lat="46.78946" lon="-0.99782">
        <ele>102</ele>
        <time>2010-01-01T05:50:28Z</time>
      </trkpt>
      <trkpt lat="46.78908" lon="-0.99659">
        <ele>102</ele>
        <time>2010-01-01T05:51:05Z</time>
      </trkpt>
      <trkpt lat="46.78906" lon="-0.99605">
        <ele>102</ele>
        <time>2010-01-01T05:51:20Z</time>
      </trkpt>
      <trkpt lat="46.78909" lon="-0.99591">
        <ele>102</ele>
        <time>2010-01-01T05:51:24Z</time>
      </trkpt>
      <trkpt lat="46.78949" lon="-0.99505">
        <ele>103</ele>
        <time>2010-01-01T05:51:52Z</time>
      </trkpt>
      <trkpt lat="46.78958" lon="-0.99453">
        <ele>102</ele>
        <time>2010-01-01T05:52:07Z</time>
      </trkpt>
      <trkpt lat="46.78955" lon="-0.994">
        <ele>102</ele>
        <time>2010-01-01T05:52:21Z</time>
      </trkpt>
      <trkpt lat="46.78937" lon="-0.99341">
        <ele>101</ele>
        <time>2010-01-01T05:52:39Z</time>
      </trkpt>
      <trkpt lat="46.78934" lon="-0.99238">
        <ele>99</ele>
        <time>2010-01-01T05:53:07Z</time>
      </trkpt>
      <trkpt lat="46.78939" lon="-0.99192">
        <ele>100</ele>
        <time>2010-01-01T05:53:20Z</time>
      </trkpt>
      <trkpt lat="46.78964" lon="-0.99097">
        <ele>104</ele>
        <time>2010-01-01T05:53:48Z</time>
      </trkpt>
      <trkpt lat="46.78975" lon="-0.98934">
        <ele>105</ele>
        <time>2010-01-01T05:54:33Z</time>
      </trkpt>
      <trkpt lat="46.78977" lon="-0.98816">
        <ele>107</ele>
        <time>2010-01-01T05:55:05Z</time>
      </trkpt>
      <trkpt lat="46.78975" lon="-0.98774">
        <ele>107</ele>
        <time>2010-01-01T05:55:17Z</time>
      </trkpt>
      <trkpt lat="46.7895" lon="-0.9859">
        <ele>106</ele>
        <time>2010-01-01T05:56:08Z</time>
      </trkpt>
      <trkpt lat="46.7891" lon="-0.98343">
        <ele>103</ele>
        <time>2010-01-01T05:57:18Z</time>
      </trkpt>
      <trkpt lat="46.78907" lon="-0.98268">
        <ele>103</ele>
        <time>2010-01-01T05:57:38Z</time>
      </trkpt>
      <trkpt lat="46.78926" lon="-0.98108">
        <ele>102</ele>
        <time>2010-01-01T05:58:23Z</time>
      </trkpt>
      <trkpt lat="46.78939" lon="-0.98045">
        <ele>103</ele>
        <time>2010-01-01T05:58:41Z</time>
      </trkpt>
      <trkpt lat="46.79116" lon="-0.97485">
        <ele>111</ele>
        <time>2010-01-01T06:01:30Z</time>
      </trkpt>
      <trkpt lat="46.79144" lon="-0.97367">
        <ele>109</ele>
        <time>2010-01-01T06:02:04Z</time>
      </trkpt>
      <trkpt lat="46.79156" lon="-0.97282">
        <ele>109</ele>
        <time>2010-01-01T06:02:28Z</time>
      </trkpt>
      <trkpt lat="46.79148" lon="-0.97272">
        <ele>109</ele>
        <time>2010-01-01T06:02:32Z</time>
      </trkpt>
      <trkpt lat="46.79222" lon="-0.97358">
        <ele>109</ele>
        <time>2010-01-01T06:03:10Z</time>
      </trkpt>
      <trkpt lat="46.79259" lon="-0.97416">
        <ele>110</ele>
        <time>2010-01-01T06:03:32Z</time>
      </trkpt>
      <trkpt lat="46.79299" lon="-0.97491">
        <ele>111</ele>
        <time>2010-01-01T06:03:58Z</time>
      </trkpt>
      <trkpt lat="46.79322" lon="-0.97545">
        <ele>112</ele>
        <time>2010-01-01T06:04:15Z</time>
      </trkpt>
      <trkpt lat="46.79338" lon="-0.97587">
        <ele>114</ele>
        <time>2010-01-01T06:04:29Z</time>
      </trkpt>
      <trkpt lat="46.7935" lon="-0.97641">
        <ele>114</ele>
        <time>2010-01-01T06:04:44Z</time>
      </trkpt>
      <trkpt lat="46.79371" lon="-0.97797">
        <ele>113</ele>
        <time>2010-01-01T06:05:28Z</time>
      </trkpt>
      <trkpt lat="46.79384" lon="-0.9786">
        <ele>113</ele>
        <time>2010-01-01T06:05:46Z</time>
      </trkpt>
      <trkpt lat="46.79428" lon="-0.97968">
        <ele>111</ele>
        <time>2010-01-01T06:06:20Z</time>
      </trkpt>
      <trkpt lat="46.79469" lon="-0.98032">
        <ele>110</ele>
        <time>2010-01-01T06:06:44Z</time>
      </trkpt>
      <trkpt lat="46.79552" lon="-0.98122">
        <ele>107</ele>
        <time>2010-01-01T06:07:26Z</time>
      </trkpt>
      <trkpt lat="46.79611" lon="-0.98237">
        <ele>103</ele>
        <time>2010-01-01T06:08:05Z</time>
      </trkpt>
      <trkpt lat="46.79644" lon="-0.98287">
        <ele>100</ele>
        <time>2010-01-01T06:08:24Z</time>
      </trkpt>
      <trkpt lat="46.79703" lon="-0.9834">
        <ele>94</ele>
        <time>2010-01-01T06:08:52Z</time>
      </trkpt>
      <trkpt lat="46.79753" lon="-0.9836">
        <ele>93</ele>
        <time>2010-01-01T06:09:12Z</time>
      </trkpt>
      <trkpt lat="46.79788" lon="-0.98356">
        <ele>93</ele>
        <time>2010-01-01T06:09:26Z</time>
      </trkpt>
      <trkpt lat="46.79856" lon="-0.98337">
        <ele>95</ele>
        <time>2010-01-01T06:09:54Z</time>
      </trkpt>
      <trkpt lat="46.79888" lon="-0.9834">
        <ele>97</ele>
        <time>2010-01-01T06:10:07Z</time>
      </trkpt>
      <trkpt lat="46.79903" lon="-0.98349">
        <ele>98</ele>
        <time>2010-01-01T06:10:14Z</time>
      </trkpt>
      <trkpt lat="46.79968" lon="-0.98431">
        <ele>101</ele>
        <time>2010-01-01T06:10:48Z</time>
      </trkpt>
      <trkpt lat="46.79999" lon="-0.9846">
        <ele>101</ele>
        <time>2010-01-01T06:11:03Z</time>
      </trkpt>
      <trkpt lat="46.8025" lon="-0.98599">
        <ele>108</ele>
        <time>2010-01-01T06:12:50Z</time>
      </trkpt>
      <trkpt lat="46.80324" lon="-0.98634">
        <ele>108</ele>
        <time>2010-01-01T06:13:21Z</time>
      </trkpt>
      <trkpt lat="46.80348" lon="-0.98639">
        <ele>107</ele>
        <time>2010-01-01T06:13:31Z</time>
      </trkpt>
      <trkpt lat="46.80398" lon="-0.98631">
        <ele>106</ele>
        <time>2010-01-01T06:13:51Z</time>
      </trkpt>
      <trkpt lat="46.80725" lon="-0.98528">
        <ele>109</ele>
        <time>2010-01-01T06:16:05Z</time>
      </trkpt>
      <trkpt lat="46.80882" lon="-0.98484">
        <ele>112</ele>
        <time>2010-01-01T06:17:09Z</time>
      </trkpt>
      <trkpt lat="46.80936" lon="-0.98484">
        <ele>111</ele>
        <time>2010-01-01T06:17:31Z</time>
      </trkpt>
      <trkpt lat="46.8152" lon="-0.98669">
        <ele>108</ele>
        <time>2010-01-01T06:21:30Z</time>
      </trkpt>
      <trkpt lat="46.8165" lon="-0.98718">
        <ele>113</ele>
        <time>2010-01-01T06:22:24Z</time>
      </trkpt>
      <trkpt lat="46.81717" lon="-0.98738">
        <ele>114</ele>
        <time>2010-01-01T06:22:51Z</time>
      </trkpt>
      <trkpt lat="46.82035" lon="-0.9894">
        <ele>108</ele>
        <time>2010-01-01T06:25:10Z</time>
      </trkpt>
      <trkpt lat="46.82167" lon="-0.99023">
        <ele>114</ele>
        <time>2010-01-01T06:26:07Z</time>
      </trkpt>
      <trkpt lat="46.82183" lon="-0.99038">
        <ele>115</ele>
        <time>2010-01-01T06:26:15Z</time>
      </trkpt>
      <trkpt lat="46.82202" lon="-0.99069">
        <ele>117</ele>
        <time>2010-01-01T06:26:26Z</time>
      </trkpt>
      <trkpt lat="46.82246" lon="-0.99341">
        <ele>114</ele>
        <time>2010-01-01T06:27:43Z</time>
      </trkpt>
      <trkpt lat="46.82252" lon="-0.99416">
        <ele>113</ele>
        <time>2010-01-01T06:28:03Z</time>
      </trkpt>
      <trkpt lat="46.82247" lon="-0.99443">
        <ele>111</ele>
        <time>2010-01-01T06:28:11Z</time>
      </trkpt>
      <trkpt lat="46.823" lon="-0.9947">
        <ele>110</ele>
        <time>2010-01-01T06:28:34Z</time>
      </trkpt>
      <trkpt lat="46.8231" lon="-0.99482">
        <ele>111</ele>
        <time>2010-01-01T06:28:39Z</time>
      </trkpt>
      <trkpt lat="46.82345" lon="-0.99561">
        <ele>107</ele>
        <time>2010-01-01T06:29:05Z</time>
      </trkpt>
      <trkpt lat="46.82372" lon="-0.99588">
        <ele>103</ele>
        <time>2010-01-01T06:29:18Z</time>
      </trkpt>
      <trkpt lat="46.82396" lon="-0.99601">
        <ele>101</ele>
        <time>2010-01-01T06:29:28Z</time>
      </trkpt>
      <trkpt lat="46.82555" lon="-0.99636">
        <ele>94</ele>
        <time>2010-01-01T06:30:32Z</time>
      </trkpt>
      <trkpt lat="46.82584" lon="-0.99646">
        <ele>92</ele>
        <time>2010-01-01T06:30:44Z</time>
      </trkpt>
      <trkpt lat="46.82596" lon="-0.99655">
        <ele>92</ele>
        <time>2010-01-01T06:30:50Z</time>
      </trkpt>
      <trkpt lat="46.8263" lon="-0.99708">
        <ele>93</ele>
        <time>2010-01-01T06:31:09Z</time>
      </trkpt>
      <trkpt lat="46.82648" lon="-0.99754">
        <ele>97</ele>
        <time>2010-01-01T06:31:24Z</time>
      </trkpt>
      <trkpt lat="46.82746" lon="-1.00065">
        <ele>108</ele>
        <time>2010-01-01T06:32:58Z</time>
      </trkpt>
      <trkpt lat="46.82802" lon="-1.00213">
        <ele>110</ele>
        <time>2010-01-01T06:33:44Z</time>
      </trkpt>
      <trkpt lat="46.82852" lon="-1.00284">
        <ele>111</ele>
        <time>2010-01-01T06:34:12Z</time>
      </trkpt>
      <trkpt lat="46.82881" lon="-1.00308">
        <ele>111</ele>
        <time>2010-01-01T06:34:25Z</time>
      </trkpt>
      <trkpt lat="46.82928" lon="-1.00332">
        <ele>113</ele>
        <time>2010-01-01T06:34:45Z</time>
      </trkpt>
      <trkpt lat="46.82966" lon="-1.00341">
        <ele>114</ele>
        <time>2010-01-01T06:35:01Z</time>
      </trkpt>
      <trkpt lat="46.83092" lon="-1.00353">
        <ele>119</ele>
        <time>2010-01-01T06:35:51Z</time>
      </trkpt>
      <trkpt lat="46.83726" lon="-1.00404">
        <ele>131</ele>
        <time>2010-01-01T06:40:05Z</time>
      </trkpt>
      <trkpt lat="46.84212" lon="-1.00434">
        <ele>119</ele>
        <time>2010-01-01T06:43:20Z</time>
      </trkpt>
      <trkpt lat="46.84479" lon="-1.0046">
        <ele>112</ele>
        <time>2010-01-01T06:45:07Z</time>
      </trkpt>
      <trkpt lat="46.84483" lon="-1.00444">
        <ele>112</ele>
        <time>2010-01-01T06:45:12Z</time>
      </trkpt>
      <trkpt lat="46.84496" lon="-1.00436">
        <ele>112</ele>
        <time>2010-01-01T06:45:18Z</time>
      </trkpt>
      <trkpt lat="46.84509" lon="-1.00446">
        <ele>111</ele>
        <time>2010-01-01T06:45:23Z</time>
      </trkpt>
      <trkpt lat="46.84513" lon="-1.00462">
        <ele>111</ele>
        <time>2010-01-01T06:45:28Z</time>
      </trkpt>
      <trkpt lat="46.84559" lon="-1.00464">
        <ele>112</ele>
        <time>2010-01-01T06:45:47Z</time>
      </trkpt>
      <trkpt lat="46.84636" lon="-1.0045">
        <ele>113</ele>
        <time>2010-01-01T06:46:18Z</time>
      </trkpt>
      <trkpt lat="46.84795" lon="-1.00382">
        <ele>117</ele>
        <time>2010-01-01T06:47:24Z</time>
      </trkpt>
      <trkpt lat="46.84847" lon="-1.00373">
        <ele>116</ele>
        <time>2010-01-01T06:47:45Z</time>
      </trkpt>
      <trkpt lat="46.84896" lon="-1.00367">
        <ele>116</ele>
        <time>2010-01-01T06:48:05Z</time>
      </trkpt>
      <trkpt lat="46.84995" lon="-1.00372">
        <ele>113</ele>
        <time>2010-01-01T06:48:44Z</time>
      </trkpt>
      <trkpt lat="46.85078" lon="-1.00407">
        <ele>112</ele>
        <time>2010-01-01T06:49:19Z</time>
      </trkpt>
      <trkpt lat="46.85094" lon="-1.00421">
        <ele>112</ele>
        <time>2010-01-01T06:49:26Z</time>
      </trkpt>
      <trkpt lat="46.851" lon="-1.00415">
        <ele>112</ele>
        <time>2010-01-01T06:49:29Z</time>
      </trkpt>
      <trkpt lat="46.85107" lon="-1.00417">
        <ele>112</ele>
        <time>2010-01-01T06:49:32Z</time>
      </trkpt>
      <trkpt lat="46.85111" lon="-1.00432">
        <ele>112</ele>
        <time>2010-01-01T06:49:36Z</time>
      </trkpt>
      <trkpt lat="46.85188" lon="-1.00491">
        <ele>110</ele>
        <time>2010-01-01T06:50:11Z</time>
      </trkpt>
      <trkpt lat="46.85237" lon="-1.00538">
        <ele>110</ele>
        <time>2010-01-01T06:50:35Z</time>
      </trkpt>
      <trkpt lat="46.85265" lon="-1.00555">
        <ele>111</ele>
        <time>2010-01-01T06:50:47Z</time>
      </trkpt>
      <trkpt lat="46.85346" lon="-1.00579">
        <ele>109</ele>
        <time>2010-01-01T06:51:20Z</time>
      </trkpt>
      <trkpt lat="46.85478" lon="-1.00648">
        <ele>109</ele>
        <time>2010-01-01T06:52:16Z</time>
      </trkpt>
      <trkpt lat="46.85507" lon="-1.00662">
        <ele>109</ele>
        <time>2010-01-01T06:52:28Z</time>
      </trkpt>
      <trkpt lat="46.85581" lon="-1.00714">
        <ele>110</ele>
        <time>2010-01-01T06:53:01Z</time>
      </trkpt>
      <trkpt lat="46.85735" lon="-1.00846">
        <ele>113</ele>
        <time>2010-01-01T06:54:13Z</time>
      </trkpt>
      <trkpt lat="46.85851" lon="-1.00911">
        <ele>114</ele>
        <time>2010-01-01T06:55:02Z</time>
      </trkpt>
      <trkpt lat="46.8586" lon="-1.00905">
        <ele>114</ele>
        <time>2010-01-01T06:55:06Z</time>
      </trkpt>
      <trkpt lat="46.85864" lon="-1.00918">
        <ele>115</ele>
        <time>2010-01-01T06:55:10Z</time>
      </trkpt>
      <trkpt lat="46.85952" lon="-1.00956">
        <ele>113</ele>
        <time>2010-01-01T06:55:47Z</time>
      </trkpt>
      <trkpt lat="46.85993" lon="-1.00897">
        <ele>113</ele>
        <time>2010-01-01T06:56:10Z</time>
      </trkpt>
      <trkpt lat="46.8605" lon="-1.00818">
        <ele>115</ele>
        <time>2010-01-01T06:56:41Z</time>
      </trkpt>
      <trkpt lat="46.86122" lon="-1.00737">
        <ele>116</ele>
        <time>2010-01-01T06:57:18Z</time>
      </trkpt>
      <trkpt lat="46.86221" lon="-1.00691">
        <ele>118</ele>
        <time>2010-01-01T06:57:59Z</time>
      </trkpt>
      <trkpt lat="46.86323" lon="-1.00617">
        <ele>120</ele>
        <time>2010-01-01T06:58:45Z</time>
      </trkpt>
      <trkpt lat="46.8638" lon="-1.00569">
        <ele>120</ele>
        <time>2010-01-01T06:59:11Z</time>
      </trkpt>
      <trkpt lat="46.86417" lon="-1.00556">
        <ele>122</ele>
        <time>2010-01-01T06:59:27Z</time>
      </trkpt>
      <trkpt lat="46.8645" lon="-1.00554">
        <ele>122</ele>
        <time>2010-01-01T06:59:40Z</time>
      </trkpt>
      <trkpt lat="46.86467" lon="-1.00484">
        <ele>120</ele>
        <time>2010-01-01T07:00:00Z</time>
      </trkpt>
      <trkpt lat="46.86518" lon="-1.00515">
        <ele>120</ele>
        <time>2010-01-01T07:00:22Z</time>
      </trkpt>
    </trkseg>
  </trk>
</gpx>